<?xml version="1.0" encoding="UTF-8" standalone="no" ?>
<gpx xmlns="http://www.topografix.com/GPX/1/1" xmlns:xsi="http://www.w3.org/2001/XMLSchema-instance" xsi:schemaLocation="http://www.topografix.com/GPX/1/1 http://www.topografix.com/GPX/1/1/gpx.xsd" version="1.1" creator="VisuGPX - https://www.visugpx.com">
  <metadata>
    <name>Les Aresquiers</name>
    <desc><![CDATA[Superbe balade au milieu des étangs avec observation de l'échasse blanche. Oiseau très gracile dans son vol.
Ne pas faire par temps trop chaud.]]></desc>
  </metadata>
  <trk>
    <name><![CDATA[4 juin 2018 14:55:09]]></name>
    <trkseg>
      <trkpt lat="43.46674" lon="3.81441">
        <ele>65.48</ele>
        <time>2018-06-04T12:55:11.164Z</time>
      </trkpt>
      <trkpt lat="43.46665" lon="3.81444">
        <ele>58.79</ele>
        <time>2018-06-04T12:55:57.000Z</time>
      </trkpt>
      <trkpt lat="43.46656" lon="3.81445">
        <ele>57.8</ele>
        <time>2018-06-04T12:56:12.000Z</time>
      </trkpt>
      <trkpt lat="43.46646" lon="3.81448">
        <ele>57.03</ele>
        <time>2018-06-04T12:56:21.000Z</time>
      </trkpt>
      <trkpt lat="43.46637" lon="3.81442">
        <ele>56.29</ele>
        <time>2018-06-04T12:56:30.000Z</time>
      </trkpt>
      <trkpt lat="43.46628" lon="3.81436">
        <ele>55.43</ele>
        <time>2018-06-04T12:56:42.000Z</time>
      </trkpt>
      <trkpt lat="43.46623" lon="3.81425">
        <ele>54.4</ele>
        <time>2018-06-04T12:57:26.000Z</time>
      </trkpt>
      <trkpt lat="43.46616" lon="3.81416">
        <ele>53.59</ele>
        <time>2018-06-04T12:57:37.000Z</time>
      </trkpt>
      <trkpt lat="43.4661" lon="3.81407">
        <ele>52.95</ele>
        <time>2018-06-04T12:57:46.000Z</time>
      </trkpt>
      <trkpt lat="43.46603" lon="3.81397">
        <ele>52.3</ele>
        <time>2018-06-04T12:57:56.000Z</time>
      </trkpt>
      <trkpt lat="43.46597" lon="3.81386">
        <ele>51.71</ele>
        <time>2018-06-04T12:58:06.000Z</time>
      </trkpt>
      <trkpt lat="43.4659" lon="3.81377">
        <ele>51.27</ele>
        <time>2018-06-04T12:58:15.000Z</time>
      </trkpt>
      <trkpt lat="43.46583" lon="3.8137">
        <ele>50.85</ele>
        <time>2018-06-04T12:58:25.000Z</time>
      </trkpt>
      <trkpt lat="43.46578" lon="3.81359">
        <ele>50.3</ele>
        <time>2018-06-04T12:58:52.000Z</time>
      </trkpt>
      <trkpt lat="43.46584" lon="3.81349">
        <ele>50.01</ele>
        <time>2018-06-04T12:59:05.000Z</time>
      </trkpt>
      <trkpt lat="43.46591" lon="3.81339">
        <ele>49.83</ele>
        <time>2018-06-04T12:59:14.000Z</time>
      </trkpt>
      <trkpt lat="43.46595" lon="3.81328">
        <ele>49.71</ele>
        <time>2018-06-04T12:59:24.000Z</time>
      </trkpt>
      <trkpt lat="43.46601" lon="3.81317">
        <ele>49.68</ele>
        <time>2018-06-04T12:59:33.000Z</time>
      </trkpt>
      <trkpt lat="43.46606" lon="3.81305">
        <ele>49.71</ele>
        <time>2018-06-04T12:59:44.000Z</time>
      </trkpt>
      <trkpt lat="43.4661" lon="3.81293">
        <ele>49.82</ele>
        <time>2018-06-04T12:59:57.000Z</time>
      </trkpt>
      <trkpt lat="43.46616" lon="3.81281">
        <ele>49.93</ele>
        <time>2018-06-04T13:00:07.000Z</time>
      </trkpt>
      <trkpt lat="43.46623" lon="3.81271">
        <ele>50.03</ele>
        <time>2018-06-04T13:00:16.000Z</time>
      </trkpt>
      <trkpt lat="43.46626" lon="3.81259">
        <ele>50.21</ele>
        <time>2018-06-04T13:00:33.000Z</time>
      </trkpt>
      <trkpt lat="43.46632" lon="3.81248">
        <ele>50.29</ele>
        <time>2018-06-04T13:00:42.000Z</time>
      </trkpt>
      <trkpt lat="43.46637" lon="3.81238">
        <ele>50.38</ele>
        <time>2018-06-04T13:00:50.000Z</time>
      </trkpt>
      <trkpt lat="43.46642" lon="3.81227">
        <ele>50.47</ele>
        <time>2018-06-04T13:01:00.000Z</time>
      </trkpt>
      <trkpt lat="43.46648" lon="3.81217">
        <ele>50.55</ele>
        <time>2018-06-04T13:01:09.000Z</time>
      </trkpt>
      <trkpt lat="43.46653" lon="3.81206">
        <ele>50.63</ele>
        <time>2018-06-04T13:01:19.000Z</time>
      </trkpt>
      <trkpt lat="43.46658" lon="3.81195">
        <ele>50.72</ele>
        <time>2018-06-04T13:01:30.000Z</time>
      </trkpt>
      <trkpt lat="43.46662" lon="3.81182">
        <ele>50.79</ele>
        <time>2018-06-04T13:01:40.000Z</time>
      </trkpt>
      <trkpt lat="43.46669" lon="3.81173">
        <ele>50.87</ele>
        <time>2018-06-04T13:02:10.000Z</time>
      </trkpt>
      <trkpt lat="43.46663" lon="3.81163">
        <ele>50.9</ele>
        <time>2018-06-04T13:02:40.000Z</time>
      </trkpt>
      <trkpt lat="43.46655" lon="3.81156">
        <ele>50.92</ele>
        <time>2018-06-04T13:02:48.000Z</time>
      </trkpt>
      <trkpt lat="43.4665" lon="3.81145">
        <ele>50.95</ele>
        <time>2018-06-04T13:02:59.000Z</time>
      </trkpt>
      <trkpt lat="43.46643" lon="3.81137">
        <ele>50.98</ele>
        <time>2018-06-04T13:03:08.000Z</time>
      </trkpt>
      <trkpt lat="43.46637" lon="3.81128">
        <ele>51.01</ele>
        <time>2018-06-04T13:03:18.000Z</time>
      </trkpt>
      <trkpt lat="43.46629" lon="3.8112">
        <ele>51.03</ele>
        <time>2018-06-04T13:03:28.000Z</time>
      </trkpt>
      <trkpt lat="43.46623" lon="3.81112">
        <ele>51.07</ele>
        <time>2018-06-04T13:03:37.000Z</time>
      </trkpt>
      <trkpt lat="43.46617" lon="3.81101">
        <ele>51.13</ele>
        <time>2018-06-04T13:03:47.000Z</time>
      </trkpt>
      <trkpt lat="43.46611" lon="3.81092">
        <ele>51.19</ele>
        <time>2018-06-04T13:03:56.000Z</time>
      </trkpt>
      <trkpt lat="43.46604" lon="3.81084">
        <ele>51.24</ele>
        <time>2018-06-04T13:04:06.000Z</time>
      </trkpt>
      <trkpt lat="43.46596" lon="3.81077">
        <ele>51.3</ele>
        <time>2018-06-04T13:04:15.000Z</time>
      </trkpt>
      <trkpt lat="43.46588" lon="3.81068">
        <ele>51.36</ele>
        <time>2018-06-04T13:04:23.000Z</time>
      </trkpt>
      <trkpt lat="43.46581" lon="3.81059">
        <ele>51.43</ele>
        <time>2018-06-04T13:04:33.000Z</time>
      </trkpt>
      <trkpt lat="43.46574" lon="3.81049">
        <ele>51.49</ele>
        <time>2018-06-04T13:04:41.000Z</time>
      </trkpt>
      <trkpt lat="43.46569" lon="3.8104">
        <ele>51.56</ele>
        <time>2018-06-04T13:04:50.000Z</time>
      </trkpt>
      <trkpt lat="43.46564" lon="3.81029">
        <ele>51.65</ele>
        <time>2018-06-04T13:04:59.000Z</time>
      </trkpt>
      <trkpt lat="43.46556" lon="3.81022">
        <ele>51.76</ele>
        <time>2018-06-04T13:05:09.000Z</time>
      </trkpt>
      <trkpt lat="43.46548" lon="3.81016">
        <ele>51.88</ele>
        <time>2018-06-04T13:05:23.000Z</time>
      </trkpt>
      <trkpt lat="43.46539" lon="3.81011">
        <ele>51.91</ele>
        <time>2018-06-04T13:05:28.000Z</time>
      </trkpt>
      <trkpt lat="43.46533" lon="3.81002">
        <ele>51.99</ele>
        <time>2018-06-04T13:05:39.000Z</time>
      </trkpt>
      <trkpt lat="43.46524" lon="3.80999">
        <ele>52.04</ele>
        <time>2018-06-04T13:05:49.000Z</time>
      </trkpt>
      <trkpt lat="43.46515" lon="3.80997">
        <ele>52.09</ele>
        <time>2018-06-04T13:05:58.000Z</time>
      </trkpt>
      <trkpt lat="43.46506" lon="3.80991">
        <ele>52.11</ele>
        <time>2018-06-04T13:06:18.000Z</time>
      </trkpt>
      <trkpt lat="43.46498" lon="3.80984">
        <ele>52.09</ele>
        <time>2018-06-04T13:06:38.000Z</time>
      </trkpt>
      <trkpt lat="43.46489" lon="3.80987">
        <ele>52.05</ele>
        <time>2018-06-04T13:06:53.000Z</time>
      </trkpt>
      <trkpt lat="43.46481" lon="3.80993">
        <ele>52.01</ele>
        <time>2018-06-04T13:07:15.000Z</time>
      </trkpt>
      <trkpt lat="43.46472" lon="3.80996">
        <ele>52.01</ele>
        <time>2018-06-04T13:07:28.000Z</time>
      </trkpt>
      <trkpt lat="43.46463" lon="3.80994">
        <ele>52.02</ele>
        <time>2018-06-04T13:07:38.000Z</time>
      </trkpt>
      <trkpt lat="43.46454" lon="3.80989">
        <ele>52.03</ele>
        <time>2018-06-04T13:07:48.000Z</time>
      </trkpt>
      <trkpt lat="43.46446" lon="3.80982">
        <ele>52.04</ele>
        <time>2018-06-04T13:08:03.000Z</time>
      </trkpt>
      <trkpt lat="43.46438" lon="3.80973">
        <ele>52.04</ele>
        <time>2018-06-04T13:08:11.000Z</time>
      </trkpt>
      <trkpt lat="43.46431" lon="3.80964">
        <ele>52.04</ele>
        <time>2018-06-04T13:08:21.000Z</time>
      </trkpt>
      <trkpt lat="43.46424" lon="3.80957">
        <ele>52.03</ele>
        <time>2018-06-04T13:08:29.000Z</time>
      </trkpt>
      <trkpt lat="43.46416" lon="3.8095">
        <ele>52.02</ele>
        <time>2018-06-04T13:08:37.000Z</time>
      </trkpt>
      <trkpt lat="43.46407" lon="3.80945">
        <ele>52.01</ele>
        <time>2018-06-04T13:08:45.000Z</time>
      </trkpt>
      <trkpt lat="43.46398" lon="3.8094">
        <ele>52</ele>
        <time>2018-06-04T13:08:54.000Z</time>
      </trkpt>
      <trkpt lat="43.46391" lon="3.80932">
        <ele>52.01</ele>
        <time>2018-06-04T13:09:03.000Z</time>
      </trkpt>
      <trkpt lat="43.46386" lon="3.80922">
        <ele>52.02</ele>
        <time>2018-06-04T13:09:11.000Z</time>
      </trkpt>
      <trkpt lat="43.46385" lon="3.80909">
        <ele>52</ele>
        <time>2018-06-04T13:09:19.000Z</time>
      </trkpt>
      <trkpt lat="43.46387" lon="3.80895">
        <ele>51.93</ele>
        <time>2018-06-04T13:09:27.000Z</time>
      </trkpt>
      <trkpt lat="43.46389" lon="3.80882">
        <ele>51.8</ele>
        <time>2018-06-04T13:09:36.000Z</time>
      </trkpt>
      <trkpt lat="43.46391" lon="3.80869">
        <ele>51.68</ele>
        <time>2018-06-04T13:09:44.000Z</time>
      </trkpt>
      <trkpt lat="43.46394" lon="3.80856">
        <ele>51.54</ele>
        <time>2018-06-04T13:09:54.000Z</time>
      </trkpt>
      <trkpt lat="43.46392" lon="3.80843">
        <ele>51.42</ele>
        <time>2018-06-04T13:10:03.000Z</time>
      </trkpt>
      <trkpt lat="43.4639" lon="3.80831">
        <ele>51.31</ele>
        <time>2018-06-04T13:10:12.000Z</time>
      </trkpt>
      <trkpt lat="43.46391" lon="3.80818">
        <ele>51.21</ele>
        <time>2018-06-04T13:10:24.000Z</time>
      </trkpt>
      <trkpt lat="43.46397" lon="3.80809">
        <ele>51.14</ele>
        <time>2018-06-04T13:10:36.000Z</time>
      </trkpt>
      <trkpt lat="43.46404" lon="3.80798">
        <ele>51.09</ele>
        <time>2018-06-04T13:10:46.000Z</time>
      </trkpt>
      <trkpt lat="43.46412" lon="3.80792">
        <ele>51.03</ele>
        <time>2018-06-04T13:10:56.000Z</time>
      </trkpt>
      <trkpt lat="43.46419" lon="3.80784">
        <ele>51.01</ele>
        <time>2018-06-04T13:11:02.000Z</time>
      </trkpt>
      <trkpt lat="43.46426" lon="3.80776">
        <ele>50.98</ele>
        <time>2018-06-04T13:11:13.000Z</time>
      </trkpt>
      <trkpt lat="43.46433" lon="3.80767">
        <ele>50.94</ele>
        <time>2018-06-04T13:11:27.000Z</time>
      </trkpt>
      <trkpt lat="43.46439" lon="3.80756">
        <ele>50.93</ele>
        <time>2018-06-04T13:11:34.000Z</time>
      </trkpt>
      <trkpt lat="43.46439" lon="3.80743">
        <ele>50.93</ele>
        <time>2018-06-04T13:11:43.000Z</time>
      </trkpt>
      <trkpt lat="43.46439" lon="3.8073">
        <ele>50.94</ele>
        <time>2018-06-04T13:12:01.000Z</time>
      </trkpt>
      <trkpt lat="43.46436" lon="3.80717">
        <ele>50.98</ele>
        <time>2018-06-04T13:12:14.000Z</time>
      </trkpt>
      <trkpt lat="43.46432" lon="3.80706">
        <ele>51</ele>
        <time>2018-06-04T13:12:22.000Z</time>
      </trkpt>
      <trkpt lat="43.46425" lon="3.80696">
        <ele>51.03</ele>
        <time>2018-06-04T13:12:31.000Z</time>
      </trkpt>
      <trkpt lat="43.4642" lon="3.80684">
        <ele>51.06</ele>
        <time>2018-06-04T13:12:42.000Z</time>
      </trkpt>
      <trkpt lat="43.46415" lon="3.80673">
        <ele>51.1</ele>
        <time>2018-06-04T13:12:50.000Z</time>
      </trkpt>
      <trkpt lat="43.4641" lon="3.80659">
        <ele>51.13</ele>
        <time>2018-06-04T13:12:58.000Z</time>
      </trkpt>
      <trkpt lat="43.46406" lon="3.80647">
        <ele>51.18</ele>
        <time>2018-06-04T13:13:08.000Z</time>
      </trkpt>
      <trkpt lat="43.46402" lon="3.80636">
        <ele>51.23</ele>
        <time>2018-06-04T13:13:15.000Z</time>
      </trkpt>
      <trkpt lat="43.46397" lon="3.80626">
        <ele>51.29</ele>
        <time>2018-06-04T13:13:25.000Z</time>
      </trkpt>
      <trkpt lat="43.46391" lon="3.80614">
        <ele>51.35</ele>
        <time>2018-06-04T13:13:33.000Z</time>
      </trkpt>
      <trkpt lat="43.46385" lon="3.80602">
        <ele>51.42</ele>
        <time>2018-06-04T13:13:43.000Z</time>
      </trkpt>
      <trkpt lat="43.46379" lon="3.80589">
        <ele>51.48</ele>
        <time>2018-06-04T13:13:52.000Z</time>
      </trkpt>
      <trkpt lat="43.46374" lon="3.80579">
        <ele>51.53</ele>
        <time>2018-06-04T13:14:00.000Z</time>
      </trkpt>
      <trkpt lat="43.46366" lon="3.8057">
        <ele>51.58</ele>
        <time>2018-06-04T13:14:08.000Z</time>
      </trkpt>
      <trkpt lat="43.46361" lon="3.80558">
        <ele>51.62</ele>
        <time>2018-06-04T13:14:15.000Z</time>
      </trkpt>
      <trkpt lat="43.46357" lon="3.80546">
        <ele>51.66</ele>
        <time>2018-06-04T13:14:23.000Z</time>
      </trkpt>
      <trkpt lat="43.46353" lon="3.80535">
        <ele>51.7</ele>
        <time>2018-06-04T13:14:32.000Z</time>
      </trkpt>
      <trkpt lat="43.46347" lon="3.80525">
        <ele>51.74</ele>
        <time>2018-06-04T13:14:40.000Z</time>
      </trkpt>
      <trkpt lat="43.46341" lon="3.80513">
        <ele>51.78</ele>
        <time>2018-06-04T13:14:49.000Z</time>
      </trkpt>
      <trkpt lat="43.46337" lon="3.80501">
        <ele>51.83</ele>
        <time>2018-06-04T13:14:57.000Z</time>
      </trkpt>
      <trkpt lat="43.46329" lon="3.80491">
        <ele>51.85</ele>
        <time>2018-06-04T13:15:03.000Z</time>
      </trkpt>
      <trkpt lat="43.46325" lon="3.80479">
        <ele>51.88</ele>
        <time>2018-06-04T13:15:10.000Z</time>
      </trkpt>
      <trkpt lat="43.4632" lon="3.80469">
        <ele>51.93</ele>
        <time>2018-06-04T13:15:21.000Z</time>
      </trkpt>
      <trkpt lat="43.46314" lon="3.80458">
        <ele>51.95</ele>
        <time>2018-06-04T13:15:29.000Z</time>
      </trkpt>
      <trkpt lat="43.4631" lon="3.80445">
        <ele>52</ele>
        <time>2018-06-04T13:15:40.000Z</time>
      </trkpt>
      <trkpt lat="43.46307" lon="3.80432">
        <ele>52.04</ele>
        <time>2018-06-04T13:15:47.000Z</time>
      </trkpt>
      <trkpt lat="43.46304" lon="3.80419">
        <ele>52.08</ele>
        <time>2018-06-04T13:15:56.000Z</time>
      </trkpt>
      <trkpt lat="43.46303" lon="3.80406">
        <ele>52.11</ele>
        <time>2018-06-04T13:16:04.000Z</time>
      </trkpt>
      <trkpt lat="43.463" lon="3.80395">
        <ele>52.14</ele>
        <time>2018-06-04T13:16:12.000Z</time>
      </trkpt>
      <trkpt lat="43.46296" lon="3.80383">
        <ele>52.15</ele>
        <time>2018-06-04T13:16:18.000Z</time>
      </trkpt>
      <trkpt lat="43.4629" lon="3.80372">
        <ele>52.16</ele>
        <time>2018-06-04T13:16:26.000Z</time>
      </trkpt>
      <trkpt lat="43.46286" lon="3.80359">
        <ele>52.17</ele>
        <time>2018-06-04T13:16:36.000Z</time>
      </trkpt>
      <trkpt lat="43.4628" lon="3.80349">
        <ele>52.17</ele>
        <time>2018-06-04T13:16:45.000Z</time>
      </trkpt>
      <trkpt lat="43.46275" lon="3.80337">
        <ele>52.17</ele>
        <time>2018-06-04T13:16:53.000Z</time>
      </trkpt>
      <trkpt lat="43.4627" lon="3.80325">
        <ele>52.16</ele>
        <time>2018-06-04T13:17:02.000Z</time>
      </trkpt>
      <trkpt lat="43.46267" lon="3.80314">
        <ele>52.16</ele>
        <time>2018-06-04T13:17:09.000Z</time>
      </trkpt>
      <trkpt lat="43.46263" lon="3.80301">
        <ele>52.17</ele>
        <time>2018-06-04T13:17:17.000Z</time>
      </trkpt>
      <trkpt lat="43.46259" lon="3.80288">
        <ele>52.17</ele>
        <time>2018-06-04T13:17:25.000Z</time>
      </trkpt>
      <trkpt lat="43.46256" lon="3.80276">
        <ele>52.17</ele>
        <time>2018-06-04T13:17:32.000Z</time>
      </trkpt>
      <trkpt lat="43.46251" lon="3.80265">
        <ele>52.17</ele>
        <time>2018-06-04T13:17:44.000Z</time>
      </trkpt>
      <trkpt lat="43.46247" lon="3.80254">
        <ele>52.16</ele>
        <time>2018-06-04T13:17:51.000Z</time>
      </trkpt>
      <trkpt lat="43.46242" lon="3.80243">
        <ele>52.14</ele>
        <time>2018-06-04T13:17:58.000Z</time>
      </trkpt>
      <trkpt lat="43.46238" lon="3.80231">
        <ele>52.12</ele>
        <time>2018-06-04T13:18:07.000Z</time>
      </trkpt>
      <trkpt lat="43.46233" lon="3.80219">
        <ele>52.11</ele>
        <time>2018-06-04T13:18:16.000Z</time>
      </trkpt>
      <trkpt lat="43.46228" lon="3.80207">
        <ele>52.1</ele>
        <time>2018-06-04T13:18:23.000Z</time>
      </trkpt>
      <trkpt lat="43.46225" lon="3.80194">
        <ele>52.08</ele>
        <time>2018-06-04T13:18:31.000Z</time>
      </trkpt>
      <trkpt lat="43.4622" lon="3.80184">
        <ele>52.07</ele>
        <time>2018-06-04T13:18:39.000Z</time>
      </trkpt>
      <trkpt lat="43.46215" lon="3.80172">
        <ele>52.06</ele>
        <time>2018-06-04T13:18:50.000Z</time>
      </trkpt>
      <trkpt lat="43.46209" lon="3.80161">
        <ele>52.06</ele>
        <time>2018-06-04T13:19:00.000Z</time>
      </trkpt>
      <trkpt lat="43.46204" lon="3.80148">
        <ele>52.05</ele>
        <time>2018-06-04T13:19:07.000Z</time>
      </trkpt>
      <trkpt lat="43.46199" lon="3.80137">
        <ele>52.04</ele>
        <time>2018-06-04T13:19:15.000Z</time>
      </trkpt>
      <trkpt lat="43.46196" lon="3.80125">
        <ele>52.03</ele>
        <time>2018-06-04T13:19:23.000Z</time>
      </trkpt>
      <trkpt lat="43.46191" lon="3.80114">
        <ele>52.02</ele>
        <time>2018-06-04T13:19:32.000Z</time>
      </trkpt>
      <trkpt lat="43.46186" lon="3.80103">
        <ele>52.02</ele>
        <time>2018-06-04T13:19:42.000Z</time>
      </trkpt>
      <trkpt lat="43.46183" lon="3.80091">
        <ele>52.01</ele>
        <time>2018-06-04T13:19:51.000Z</time>
      </trkpt>
      <trkpt lat="43.46182" lon="3.80078">
        <ele>52</ele>
        <time>2018-06-04T13:19:58.000Z</time>
      </trkpt>
      <trkpt lat="43.46179" lon="3.80066">
        <ele>51.99</ele>
        <time>2018-06-04T13:20:04.000Z</time>
      </trkpt>
      <trkpt lat="43.46175" lon="3.80055">
        <ele>51.98</ele>
        <time>2018-06-04T13:20:15.000Z</time>
      </trkpt>
      <trkpt lat="43.46171" lon="3.80043">
        <ele>52</ele>
        <time>2018-06-04T13:20:23.000Z</time>
      </trkpt>
      <trkpt lat="43.46166" lon="3.80031">
        <ele>52.03</ele>
        <time>2018-06-04T13:20:34.000Z</time>
      </trkpt>
      <trkpt lat="43.46162" lon="3.80019">
        <ele>52.06</ele>
        <time>2018-06-04T13:20:42.000Z</time>
      </trkpt>
      <trkpt lat="43.46156" lon="3.80009">
        <ele>52.08</ele>
        <time>2018-06-04T13:20:49.000Z</time>
      </trkpt>
      <trkpt lat="43.46151" lon="3.79998">
        <ele>52.1</ele>
        <time>2018-06-04T13:20:58.000Z</time>
      </trkpt>
      <trkpt lat="43.46147" lon="3.79986">
        <ele>52.12</ele>
        <time>2018-06-04T13:21:09.000Z</time>
      </trkpt>
      <trkpt lat="43.46143" lon="3.79975">
        <ele>52.14</ele>
        <time>2018-06-04T13:21:16.000Z</time>
      </trkpt>
      <trkpt lat="43.46139" lon="3.79962">
        <ele>52.16</ele>
        <time>2018-06-04T13:21:23.000Z</time>
      </trkpt>
      <trkpt lat="43.46135" lon="3.7995">
        <ele>52.17</ele>
        <time>2018-06-04T13:21:30.000Z</time>
      </trkpt>
      <trkpt lat="43.4613" lon="3.79939">
        <ele>52.18</ele>
        <time>2018-06-04T13:21:42.000Z</time>
      </trkpt>
      <trkpt lat="43.46125" lon="3.79928">
        <ele>52.2</ele>
        <time>2018-06-04T13:21:50.000Z</time>
      </trkpt>
      <trkpt lat="43.46122" lon="3.79915">
        <ele>52.22</ele>
        <time>2018-06-04T13:21:58.000Z</time>
      </trkpt>
      <trkpt lat="43.46119" lon="3.79902">
        <ele>52.23</ele>
        <time>2018-06-04T13:22:07.000Z</time>
      </trkpt>
      <trkpt lat="43.46114" lon="3.7989">
        <ele>52.23</ele>
        <time>2018-06-04T13:22:15.000Z</time>
      </trkpt>
      <trkpt lat="43.46109" lon="3.79878">
        <ele>52.24</ele>
        <time>2018-06-04T13:22:26.000Z</time>
      </trkpt>
      <trkpt lat="43.46103" lon="3.79868">
        <ele>52.24</ele>
        <time>2018-06-04T13:22:34.999Z</time>
      </trkpt>
      <trkpt lat="43.46098" lon="3.79858">
        <ele>52.25</ele>
        <time>2018-06-04T13:22:41.999Z</time>
      </trkpt>
      <trkpt lat="43.46093" lon="3.79846">
        <ele>52.27</ele>
        <time>2018-06-04T13:22:52.999Z</time>
      </trkpt>
      <trkpt lat="43.46088" lon="3.79835">
        <ele>52.28</ele>
        <time>2018-06-04T13:23:02.999Z</time>
      </trkpt>
      <trkpt lat="43.46082" lon="3.79825">
        <ele>52.3</ele>
        <time>2018-06-04T13:23:10.999Z</time>
      </trkpt>
      <trkpt lat="43.46079" lon="3.79813">
        <ele>52.32</ele>
        <time>2018-06-04T13:23:17.999Z</time>
      </trkpt>
      <trkpt lat="43.46076" lon="3.79801">
        <ele>52.35</ele>
        <time>2018-06-04T13:23:25.999Z</time>
      </trkpt>
      <trkpt lat="43.46071" lon="3.79788">
        <ele>52.38</ele>
        <time>2018-06-04T13:23:33.999Z</time>
      </trkpt>
      <trkpt lat="43.46066" lon="3.79777">
        <ele>52.41</ele>
        <time>2018-06-04T13:23:42.999Z</time>
      </trkpt>
      <trkpt lat="43.46063" lon="3.79764">
        <ele>52.44</ele>
        <time>2018-06-04T13:23:53.999Z</time>
      </trkpt>
      <trkpt lat="43.46062" lon="3.79752">
        <ele>52.46</ele>
        <time>2018-06-04T13:24:02.999Z</time>
      </trkpt>
      <trkpt lat="43.46063" lon="3.79738">
        <ele>52.46</ele>
        <time>2018-06-04T13:24:09.999Z</time>
      </trkpt>
      <trkpt lat="43.46066" lon="3.79725">
        <ele>52.47</ele>
        <time>2018-06-04T13:24:16.999Z</time>
      </trkpt>
      <trkpt lat="43.46068" lon="3.79713">
        <ele>52.47</ele>
        <time>2018-06-04T13:24:26.999Z</time>
      </trkpt>
      <trkpt lat="43.46068" lon="3.797">
        <ele>52.49</ele>
        <time>2018-06-04T13:24:38.999Z</time>
      </trkpt>
      <trkpt lat="43.46067" lon="3.79687">
        <ele>52.51</ele>
        <time>2018-06-04T13:24:47.999Z</time>
      </trkpt>
      <trkpt lat="43.46067" lon="3.79674">
        <ele>52.53</ele>
        <time>2018-06-04T13:24:55.999Z</time>
      </trkpt>
      <trkpt lat="43.46072" lon="3.7966">
        <ele>52.54</ele>
        <time>2018-06-04T13:25:01.999Z</time>
      </trkpt>
      <trkpt lat="43.46075" lon="3.79648">
        <ele>52.55</ele>
        <time>2018-06-04T13:25:06.999Z</time>
      </trkpt>
      <trkpt lat="43.46077" lon="3.79636">
        <ele>52.55</ele>
        <time>2018-06-04T13:25:17.999Z</time>
      </trkpt>
      <trkpt lat="43.46079" lon="3.79621">
        <ele>52.55</ele>
        <time>2018-06-04T13:25:25.999Z</time>
      </trkpt>
      <trkpt lat="43.46085" lon="3.79609">
        <ele>52.56</ele>
        <time>2018-06-04T13:25:34.999Z</time>
      </trkpt>
      <trkpt lat="43.46089" lon="3.79597">
        <ele>52.57</ele>
        <time>2018-06-04T13:25:42.999Z</time>
      </trkpt>
      <trkpt lat="43.46091" lon="3.79584">
        <ele>52.56</ele>
        <time>2018-06-04T13:25:51.999Z</time>
      </trkpt>
      <trkpt lat="43.4609" lon="3.79572">
        <ele>52.56</ele>
        <time>2018-06-04T13:26:27.999Z</time>
      </trkpt>
      <trkpt lat="43.46094" lon="3.79559">
        <ele>52.56</ele>
        <time>2018-06-04T13:26:44.999Z</time>
      </trkpt>
      <trkpt lat="43.46092" lon="3.79546">
        <ele>52.55</ele>
        <time>2018-06-04T13:26:59.999Z</time>
      </trkpt>
      <trkpt lat="43.46091" lon="3.79533">
        <ele>52.55</ele>
        <time>2018-06-04T13:27:09.999Z</time>
      </trkpt>
      <trkpt lat="43.46091" lon="3.7952">
        <ele>52.55</ele>
        <time>2018-06-04T13:27:21.999Z</time>
      </trkpt>
      <trkpt lat="43.46092" lon="3.79506">
        <ele>52.54</ele>
        <time>2018-06-04T13:27:32.999Z</time>
      </trkpt>
      <trkpt lat="43.4609" lon="3.79493">
        <ele>52.53</ele>
        <time>2018-06-04T13:27:39.999Z</time>
      </trkpt>
      <trkpt lat="43.46085" lon="3.79482">
        <ele>52.51</ele>
        <time>2018-06-04T13:27:56.999Z</time>
      </trkpt>
      <trkpt lat="43.46078" lon="3.79474">
        <ele>52.51</ele>
        <time>2018-06-04T13:28:16.999Z</time>
      </trkpt>
      <trkpt lat="43.46072" lon="3.79464">
        <ele>52.49</ele>
        <time>2018-06-04T13:28:46.999Z</time>
      </trkpt>
      <trkpt lat="43.46067" lon="3.79454">
        <ele>52.5</ele>
        <time>2018-06-04T13:28:56.999Z</time>
      </trkpt>
      <trkpt lat="43.46059" lon="3.79446">
        <ele>52.51</ele>
        <time>2018-06-04T13:29:07.999Z</time>
      </trkpt>
      <trkpt lat="43.46051" lon="3.79438">
        <ele>52.52</ele>
        <time>2018-06-04T13:29:15.999Z</time>
      </trkpt>
      <trkpt lat="43.46046" lon="3.79427">
        <ele>52.53</ele>
        <time>2018-06-04T13:29:25.999Z</time>
      </trkpt>
      <trkpt lat="43.46039" lon="3.79416">
        <ele>52.54</ele>
        <time>2018-06-04T13:29:34.999Z</time>
      </trkpt>
      <trkpt lat="43.46035" lon="3.79405">
        <ele>52.56</ele>
        <time>2018-06-04T13:29:43.999Z</time>
      </trkpt>
      <trkpt lat="43.4603" lon="3.79394">
        <ele>52.6</ele>
        <time>2018-06-04T13:29:55.999Z</time>
      </trkpt>
      <trkpt lat="43.46029" lon="3.79381">
        <ele>52.62</ele>
        <time>2018-06-04T13:30:07.999Z</time>
      </trkpt>
      <trkpt lat="43.46025" lon="3.79368">
        <ele>52.61</ele>
        <time>2018-06-04T13:30:17.999Z</time>
      </trkpt>
      <trkpt lat="43.46022" lon="3.79356">
        <ele>52.6</ele>
        <time>2018-06-04T13:30:27.999Z</time>
      </trkpt>
      <trkpt lat="43.46018" lon="3.79345">
        <ele>52.6</ele>
        <time>2018-06-04T13:30:35.999Z</time>
      </trkpt>
      <trkpt lat="43.4601" lon="3.79337">
        <ele>52.6</ele>
        <time>2018-06-04T13:30:44.999Z</time>
      </trkpt>
      <trkpt lat="43.46002" lon="3.79332">
        <ele>52.6</ele>
        <time>2018-06-04T13:30:54.999Z</time>
      </trkpt>
      <trkpt lat="43.45998" lon="3.7932">
        <ele>52.59</ele>
        <time>2018-06-04T13:31:03.999Z</time>
      </trkpt>
      <trkpt lat="43.45993" lon="3.79309">
        <ele>52.56</ele>
        <time>2018-06-04T13:31:14.999Z</time>
      </trkpt>
      <trkpt lat="43.45988" lon="3.79297">
        <ele>52.51</ele>
        <time>2018-06-04T13:31:22.999Z</time>
      </trkpt>
      <trkpt lat="43.45984" lon="3.79285">
        <ele>52.41</ele>
        <time>2018-06-04T13:31:31.999Z</time>
      </trkpt>
      <trkpt lat="43.45977" lon="3.79277">
        <ele>52.25</ele>
        <time>2018-06-04T13:31:42.999Z</time>
      </trkpt>
      <trkpt lat="43.45971" lon="3.79265">
        <ele>52.14</ele>
        <time>2018-06-04T13:31:49.999Z</time>
      </trkpt>
      <trkpt lat="43.45968" lon="3.79254">
        <ele>52</ele>
        <time>2018-06-04T13:31:58.999Z</time>
      </trkpt>
      <trkpt lat="43.45968" lon="3.7924">
        <ele>51.81</ele>
        <time>2018-06-04T13:32:10.999Z</time>
      </trkpt>
      <trkpt lat="43.45962" lon="3.7923">
        <ele>51.66</ele>
        <time>2018-06-04T13:32:20.999Z</time>
      </trkpt>
      <trkpt lat="43.45958" lon="3.79218">
        <ele>51.5</ele>
        <time>2018-06-04T13:32:30.999Z</time>
      </trkpt>
      <trkpt lat="43.45954" lon="3.79206">
        <ele>51.38</ele>
        <time>2018-06-04T13:32:51.999Z</time>
      </trkpt>
      <trkpt lat="43.45948" lon="3.79196">
        <ele>51.24</ele>
        <time>2018-06-04T13:33:09.999Z</time>
      </trkpt>
      <trkpt lat="43.4594" lon="3.79188">
        <ele>51.09</ele>
        <time>2018-06-04T13:33:19.999Z</time>
      </trkpt>
      <trkpt lat="43.45934" lon="3.79179">
        <ele>50.95</ele>
        <time>2018-06-04T13:33:27.999Z</time>
      </trkpt>
      <trkpt lat="43.45927" lon="3.7917">
        <ele>50.8</ele>
        <time>2018-06-04T13:33:36.999Z</time>
      </trkpt>
      <trkpt lat="43.4592" lon="3.79161">
        <ele>50.6</ele>
        <time>2018-06-04T13:33:47.999Z</time>
      </trkpt>
      <trkpt lat="43.45916" lon="3.79149">
        <ele>50.47</ele>
        <time>2018-06-04T13:33:55.999Z</time>
      </trkpt>
      <trkpt lat="43.45909" lon="3.7914">
        <ele>50.32</ele>
        <time>2018-06-04T13:34:07.999Z</time>
      </trkpt>
      <trkpt lat="43.45904" lon="3.79128">
        <ele>50.21</ele>
        <time>2018-06-04T13:34:17.999Z</time>
      </trkpt>
      <trkpt lat="43.45896" lon="3.79119">
        <ele>50.13</ele>
        <time>2018-06-04T13:34:26.999Z</time>
      </trkpt>
      <trkpt lat="43.4589" lon="3.7911">
        <ele>50.06</ele>
        <time>2018-06-04T13:34:35.999Z</time>
      </trkpt>
      <trkpt lat="43.45886" lon="3.79098">
        <ele>50</ele>
        <time>2018-06-04T13:34:45.999Z</time>
      </trkpt>
      <trkpt lat="43.4588" lon="3.79089">
        <ele>49.94</ele>
        <time>2018-06-04T13:34:58.999Z</time>
      </trkpt>
      <trkpt lat="43.45872" lon="3.7908">
        <ele>49.91</ele>
        <time>2018-06-04T13:35:08.999Z</time>
      </trkpt>
      <trkpt lat="43.45866" lon="3.79069">
        <ele>49.89</ele>
        <time>2018-06-04T13:35:16.999Z</time>
      </trkpt>
      <trkpt lat="43.45866" lon="3.79056">
        <ele>49.88</ele>
        <time>2018-06-04T13:35:25.999Z</time>
      </trkpt>
      <trkpt lat="43.45866" lon="3.79043">
        <ele>49.86</ele>
        <time>2018-06-04T13:35:36.999Z</time>
      </trkpt>
      <trkpt lat="43.45862" lon="3.79031">
        <ele>49.85</ele>
        <time>2018-06-04T13:35:48.999Z</time>
      </trkpt>
      <trkpt lat="43.45854" lon="3.79022">
        <ele>49.84</ele>
        <time>2018-06-04T13:35:57.999Z</time>
      </trkpt>
      <trkpt lat="43.45849" lon="3.79012">
        <ele>49.84</ele>
        <time>2018-06-04T13:36:06.999Z</time>
      </trkpt>
      <trkpt lat="43.45845" lon="3.79">
        <ele>49.84</ele>
        <time>2018-06-04T13:36:15.999Z</time>
      </trkpt>
      <trkpt lat="43.45837" lon="3.78992">
        <ele>49.85</ele>
        <time>2018-06-04T13:36:34.999Z</time>
      </trkpt>
      <trkpt lat="43.4583" lon="3.78985">
        <ele>49.84</ele>
        <time>2018-06-04T13:36:46.999Z</time>
      </trkpt>
      <trkpt lat="43.45824" lon="3.78975">
        <ele>49.82</ele>
        <time>2018-06-04T13:36:54.999Z</time>
      </trkpt>
      <trkpt lat="43.45826" lon="3.78962">
        <ele>49.76</ele>
        <time>2018-06-04T13:37:04.999Z</time>
      </trkpt>
      <trkpt lat="43.45831" lon="3.78951">
        <ele>49.68</ele>
        <time>2018-06-04T13:37:13.999Z</time>
      </trkpt>
      <trkpt lat="43.45839" lon="3.78945">
        <ele>49.6</ele>
        <time>2018-06-04T13:37:20.999Z</time>
      </trkpt>
      <trkpt lat="43.45849" lon="3.78943">
        <ele>49.46</ele>
        <time>2018-06-04T13:37:36.999Z</time>
      </trkpt>
      <trkpt lat="43.45858" lon="3.78941">
        <ele>49.37</ele>
        <time>2018-06-04T13:37:45.999Z</time>
      </trkpt>
      <trkpt lat="43.45866" lon="3.78932">
        <ele>49.3</ele>
        <time>2018-06-04T13:37:54.999Z</time>
      </trkpt>
      <trkpt lat="43.45871" lon="3.78922">
        <ele>49.24</ele>
        <time>2018-06-04T13:38:03.999Z</time>
      </trkpt>
      <trkpt lat="43.45879" lon="3.78912">
        <ele>49.2</ele>
        <time>2018-06-04T13:38:11.999Z</time>
      </trkpt>
      <trkpt lat="43.45886" lon="3.78904">
        <ele>49.16</ele>
        <time>2018-06-04T13:38:19.999Z</time>
      </trkpt>
      <trkpt lat="43.45893" lon="3.78896">
        <ele>49.11</ele>
        <time>2018-06-04T13:38:28.999Z</time>
      </trkpt>
      <trkpt lat="43.459" lon="3.78887">
        <ele>49.04</ele>
        <time>2018-06-04T13:38:38.999Z</time>
      </trkpt>
      <trkpt lat="43.45907" lon="3.78877">
        <ele>48.98</ele>
        <time>2018-06-04T13:38:46.999Z</time>
      </trkpt>
      <trkpt lat="43.45913" lon="3.78867">
        <ele>48.89</ele>
        <time>2018-06-04T13:38:54.999Z</time>
      </trkpt>
      <trkpt lat="43.45919" lon="3.78859">
        <ele>48.77</ele>
        <time>2018-06-04T13:39:04.999Z</time>
      </trkpt>
      <trkpt lat="43.45928" lon="3.78853">
        <ele>48.66</ele>
        <time>2018-06-04T13:39:13.999Z</time>
      </trkpt>
      <trkpt lat="43.45937" lon="3.78847">
        <ele>48.58</ele>
        <time>2018-06-04T13:39:21.999Z</time>
      </trkpt>
      <trkpt lat="43.45944" lon="3.78841">
        <ele>48.49</ele>
        <time>2018-06-04T13:39:29.999Z</time>
      </trkpt>
      <trkpt lat="43.45951" lon="3.78831">
        <ele>48.39</ele>
        <time>2018-06-04T13:39:39.999Z</time>
      </trkpt>
      <trkpt lat="43.45958" lon="3.78823">
        <ele>48.3</ele>
        <time>2018-06-04T13:39:47.999Z</time>
      </trkpt>
      <trkpt lat="43.45965" lon="3.78814">
        <ele>48.23</ele>
        <time>2018-06-04T13:39:55.999Z</time>
      </trkpt>
      <trkpt lat="43.45971" lon="3.78804">
        <ele>48.17</ele>
        <time>2018-06-04T13:40:04.999Z</time>
      </trkpt>
      <trkpt lat="43.45979" lon="3.78797">
        <ele>48.11</ele>
        <time>2018-06-04T13:40:13.999Z</time>
      </trkpt>
      <trkpt lat="43.45988" lon="3.7879">
        <ele>48.06</ele>
        <time>2018-06-04T13:40:21.999Z</time>
      </trkpt>
      <trkpt lat="43.45995" lon="3.78781">
        <ele>48</ele>
        <time>2018-06-04T13:40:30.999Z</time>
      </trkpt>
      <trkpt lat="43.46001" lon="3.78772">
        <ele>47.93</ele>
        <time>2018-06-04T13:40:40.999Z</time>
      </trkpt>
      <trkpt lat="43.4601" lon="3.78765">
        <ele>47.88</ele>
        <time>2018-06-04T13:40:50.999Z</time>
      </trkpt>
      <trkpt lat="43.46018" lon="3.78757">
        <ele>47.84</ele>
        <time>2018-06-04T13:40:57.999Z</time>
      </trkpt>
      <trkpt lat="43.46024" lon="3.78748">
        <ele>47.79</ele>
        <time>2018-06-04T13:41:05.999Z</time>
      </trkpt>
      <trkpt lat="43.46031" lon="3.78738">
        <ele>47.72</ele>
        <time>2018-06-04T13:41:16.999Z</time>
      </trkpt>
      <trkpt lat="43.46037" lon="3.78727">
        <ele>47.69</ele>
        <time>2018-06-04T13:41:25.999Z</time>
      </trkpt>
      <trkpt lat="43.46042" lon="3.78715">
        <ele>47.67</ele>
        <time>2018-06-04T13:41:36.999Z</time>
      </trkpt>
      <trkpt lat="43.46044" lon="3.78701">
        <ele>47.66</ele>
        <time>2018-06-04T13:41:46.999Z</time>
      </trkpt>
      <trkpt lat="43.46049" lon="3.78689">
        <ele>47.67</ele>
        <time>2018-06-04T13:41:55.999Z</time>
      </trkpt>
      <trkpt lat="43.46052" lon="3.78676">
        <ele>47.67</ele>
        <time>2018-06-04T13:42:02.999Z</time>
      </trkpt>
      <trkpt lat="43.46055" lon="3.78664">
        <ele>47.67</ele>
        <time>2018-06-04T13:42:11.999Z</time>
      </trkpt>
      <trkpt lat="43.46056" lon="3.78651">
        <ele>47.69</ele>
        <time>2018-06-04T13:42:20.999Z</time>
      </trkpt>
      <trkpt lat="43.46057" lon="3.78638">
        <ele>47.7</ele>
        <time>2018-06-04T13:42:28.999Z</time>
      </trkpt>
      <trkpt lat="43.46061" lon="3.78626">
        <ele>47.71</ele>
        <time>2018-06-04T13:42:37.999Z</time>
      </trkpt>
      <trkpt lat="43.46063" lon="3.78613">
        <ele>47.72</ele>
        <time>2018-06-04T13:42:45.999Z</time>
      </trkpt>
      <trkpt lat="43.46066" lon="3.78601">
        <ele>47.75</ele>
        <time>2018-06-04T13:42:55.999Z</time>
      </trkpt>
      <trkpt lat="43.46069" lon="3.78588">
        <ele>47.78</ele>
        <time>2018-06-04T13:43:04.999Z</time>
      </trkpt>
      <trkpt lat="43.4607" lon="3.78575">
        <ele>47.8</ele>
        <time>2018-06-04T13:43:12.999Z</time>
      </trkpt>
      <trkpt lat="43.46072" lon="3.78562">
        <ele>47.83</ele>
        <time>2018-06-04T13:43:20.999Z</time>
      </trkpt>
      <trkpt lat="43.46073" lon="3.78549">
        <ele>47.85</ele>
        <time>2018-06-04T13:43:26.999Z</time>
      </trkpt>
      <trkpt lat="43.46077" lon="3.78535">
        <ele>47.87</ele>
        <time>2018-06-04T13:43:34.999Z</time>
      </trkpt>
      <trkpt lat="43.46082" lon="3.78523">
        <ele>47.89</ele>
        <time>2018-06-04T13:43:41.999Z</time>
      </trkpt>
      <trkpt lat="43.46084" lon="3.78511">
        <ele>47.9</ele>
        <time>2018-06-04T13:43:50.999Z</time>
      </trkpt>
      <trkpt lat="43.46087" lon="3.78499">
        <ele>47.9</ele>
        <time>2018-06-04T13:43:58.999Z</time>
      </trkpt>
      <trkpt lat="43.4609" lon="3.78486">
        <ele>47.9</ele>
        <time>2018-06-04T13:44:08.999Z</time>
      </trkpt>
      <trkpt lat="43.4609" lon="3.78473">
        <ele>47.92</ele>
        <time>2018-06-04T13:44:15.999Z</time>
      </trkpt>
      <trkpt lat="43.46093" lon="3.7846">
        <ele>47.94</ele>
        <time>2018-06-04T13:44:23.999Z</time>
      </trkpt>
      <trkpt lat="43.46093" lon="3.78447">
        <ele>47.98</ele>
        <time>2018-06-04T13:44:31.999Z</time>
      </trkpt>
      <trkpt lat="43.46093" lon="3.78435">
        <ele>48.05</ele>
        <time>2018-06-04T13:44:40.999Z</time>
      </trkpt>
      <trkpt lat="43.46091" lon="3.78422">
        <ele>48.14</ele>
        <time>2018-06-04T13:44:50.999Z</time>
      </trkpt>
      <trkpt lat="43.46086" lon="3.78411">
        <ele>48.21</ele>
        <time>2018-06-04T13:44:59.999Z</time>
      </trkpt>
      <trkpt lat="43.4608" lon="3.784">
        <ele>48.28</ele>
        <time>2018-06-04T13:45:08.999Z</time>
      </trkpt>
      <trkpt lat="43.46077" lon="3.78388">
        <ele>48.33</ele>
        <time>2018-06-04T13:45:18.999Z</time>
      </trkpt>
      <trkpt lat="43.46071" lon="3.78378">
        <ele>48.38</ele>
        <time>2018-06-04T13:45:29.999Z</time>
      </trkpt>
      <trkpt lat="43.46068" lon="3.78365">
        <ele>48.4</ele>
        <time>2018-06-04T13:45:38.999Z</time>
      </trkpt>
      <trkpt lat="43.46069" lon="3.78351">
        <ele>48.41</ele>
        <time>2018-06-04T13:45:48.999Z</time>
      </trkpt>
      <trkpt lat="43.4607" lon="3.78339">
        <ele>48.42</ele>
        <time>2018-06-04T13:45:56.999Z</time>
      </trkpt>
      <trkpt lat="43.46071" lon="3.78326">
        <ele>48.43</ele>
        <time>2018-06-04T13:46:03.999Z</time>
      </trkpt>
      <trkpt lat="43.46071" lon="3.78313">
        <ele>48.43</ele>
        <time>2018-06-04T13:46:13.999Z</time>
      </trkpt>
      <trkpt lat="43.46072" lon="3.78299">
        <ele>48.43</ele>
        <time>2018-06-04T13:46:23.999Z</time>
      </trkpt>
      <trkpt lat="43.46072" lon="3.78287">
        <ele>48.43</ele>
        <time>2018-06-04T13:46:31.999Z</time>
      </trkpt>
      <trkpt lat="43.46073" lon="3.78274">
        <ele>48.43</ele>
        <time>2018-06-04T13:46:39.999Z</time>
      </trkpt>
      <trkpt lat="43.46074" lon="3.78261">
        <ele>48.44</ele>
        <time>2018-06-04T13:46:47.999Z</time>
      </trkpt>
      <trkpt lat="43.46072" lon="3.78249">
        <ele>48.44</ele>
        <time>2018-06-04T13:46:54.999Z</time>
      </trkpt>
      <trkpt lat="43.46069" lon="3.78236">
        <ele>48.45</ele>
        <time>2018-06-04T13:47:02.999Z</time>
      </trkpt>
      <trkpt lat="43.46066" lon="3.78225">
        <ele>48.43</ele>
        <time>2018-06-04T13:47:12.999Z</time>
      </trkpt>
      <trkpt lat="43.46063" lon="3.78212">
        <ele>48.41</ele>
        <time>2018-06-04T13:47:22.999Z</time>
      </trkpt>
      <trkpt lat="43.46063" lon="3.782">
        <ele>48.39</ele>
        <time>2018-06-04T13:47:31.999Z</time>
      </trkpt>
      <trkpt lat="43.46064" lon="3.78187">
        <ele>48.36</ele>
        <time>2018-06-04T13:47:41.999Z</time>
      </trkpt>
      <trkpt lat="43.46059" lon="3.78177">
        <ele>48.32</ele>
        <time>2018-06-04T13:47:51.999Z</time>
      </trkpt>
      <trkpt lat="43.46055" lon="3.78164">
        <ele>48.29</ele>
        <time>2018-06-04T13:48:04.999Z</time>
      </trkpt>
      <trkpt lat="43.46058" lon="3.78152">
        <ele>48.27</ele>
        <time>2018-06-04T13:48:12.999Z</time>
      </trkpt>
      <trkpt lat="43.46061" lon="3.78139">
        <ele>48.26</ele>
        <time>2018-06-04T13:48:21.999Z</time>
      </trkpt>
      <trkpt lat="43.46064" lon="3.78127">
        <ele>48.27</ele>
        <time>2018-06-04T13:48:29.999Z</time>
      </trkpt>
      <trkpt lat="43.46068" lon="3.78115">
        <ele>48.29</ele>
        <time>2018-06-04T13:48:45.999Z</time>
      </trkpt>
      <trkpt lat="43.46072" lon="3.78103">
        <ele>48.32</ele>
        <time>2018-06-04T13:48:54.999Z</time>
      </trkpt>
      <trkpt lat="43.46077" lon="3.78092">
        <ele>48.35</ele>
        <time>2018-06-04T13:49:06.999Z</time>
      </trkpt>
      <trkpt lat="43.4608" lon="3.78079">
        <ele>48.35</ele>
        <time>2018-06-04T13:49:15.999Z</time>
      </trkpt>
      <trkpt lat="43.46072" lon="3.7807">
        <ele>48.22</ele>
        <time>2018-06-04T13:50:10.999Z</time>
      </trkpt>
      <trkpt lat="43.46075" lon="3.78085">
        <ele>48.18</ele>
        <time>2018-06-04T13:50:13.999Z</time>
      </trkpt>
      <trkpt lat="43.46064" lon="3.78102">
        <ele>48.14</ele>
        <time>2018-06-04T13:50:17.999Z</time>
      </trkpt>
      <trkpt lat="43.46075" lon="3.78098">
        <ele>48.13</ele>
        <time>2018-06-04T13:50:18.999Z</time>
      </trkpt>
      <trkpt lat="43.46075" lon="3.78085">
        <ele>48.12</ele>
        <time>2018-06-04T13:50:19.999Z</time>
      </trkpt>
      <trkpt lat="43.46079" lon="3.78075">
        <ele>48.09</ele>
        <time>2018-06-04T13:50:22.999Z</time>
      </trkpt>
      <trkpt lat="43.46085" lon="3.78064">
        <ele>48.05</ele>
        <time>2018-06-04T13:50:35.999Z</time>
      </trkpt>
      <trkpt lat="43.46088" lon="3.78051">
        <ele>47.99</ele>
        <time>2018-06-04T13:50:43.999Z</time>
      </trkpt>
      <trkpt lat="43.46092" lon="3.7804">
        <ele>47.94</ele>
        <time>2018-06-04T13:50:53.999Z</time>
      </trkpt>
      <trkpt lat="43.46096" lon="3.78027">
        <ele>47.9</ele>
        <time>2018-06-04T13:51:02.999Z</time>
      </trkpt>
      <trkpt lat="43.461" lon="3.78015">
        <ele>47.87</ele>
        <time>2018-06-04T13:51:09.999Z</time>
      </trkpt>
      <trkpt lat="43.46106" lon="3.78004">
        <ele>47.84</ele>
        <time>2018-06-04T13:51:19.999Z</time>
      </trkpt>
      <trkpt lat="43.46114" lon="3.77997">
        <ele>47.82</ele>
        <time>2018-06-04T13:51:28.999Z</time>
      </trkpt>
      <trkpt lat="43.46119" lon="3.77986">
        <ele>47.79</ele>
        <time>2018-06-04T13:51:38.999Z</time>
      </trkpt>
      <trkpt lat="43.46125" lon="3.77975">
        <ele>47.75</ele>
        <time>2018-06-04T13:51:48.000Z</time>
      </trkpt>
      <trkpt lat="43.4613" lon="3.77964">
        <ele>47.72</ele>
        <time>2018-06-04T13:51:57.000Z</time>
      </trkpt>
      <trkpt lat="43.46138" lon="3.77956">
        <ele>47.68</ele>
        <time>2018-06-04T13:52:07.000Z</time>
      </trkpt>
      <trkpt lat="43.46142" lon="3.77945">
        <ele>47.64</ele>
        <time>2018-06-04T13:52:18.000Z</time>
      </trkpt>
      <trkpt lat="43.4615" lon="3.77938">
        <ele>47.6</ele>
        <time>2018-06-04T13:52:54.000Z</time>
      </trkpt>
      <trkpt lat="43.46157" lon="3.77928">
        <ele>47.59</ele>
        <time>2018-06-04T13:53:04.000Z</time>
      </trkpt>
      <trkpt lat="43.46164" lon="3.77919">
        <ele>47.58</ele>
        <time>2018-06-04T13:53:13.000Z</time>
      </trkpt>
      <trkpt lat="43.46172" lon="3.77912">
        <ele>47.57</ele>
        <time>2018-06-04T13:53:25.000Z</time>
      </trkpt>
      <trkpt lat="43.46178" lon="3.77902">
        <ele>47.58</ele>
        <time>2018-06-04T13:54:06.000Z</time>
      </trkpt>
      <trkpt lat="43.46174" lon="3.7789">
        <ele>47.61</ele>
        <time>2018-06-04T13:54:16.000Z</time>
      </trkpt>
      <trkpt lat="43.4617" lon="3.77878">
        <ele>47.65</ele>
        <time>2018-06-04T13:54:26.000Z</time>
      </trkpt>
      <trkpt lat="43.46167" lon="3.77866">
        <ele>47.63</ele>
        <time>2018-06-04T13:54:50.000Z</time>
      </trkpt>
      <trkpt lat="43.46162" lon="3.77854">
        <ele>47.6</ele>
        <time>2018-06-04T13:55:00.000Z</time>
      </trkpt>
      <trkpt lat="43.46159" lon="3.77843">
        <ele>47.59</ele>
        <time>2018-06-04T13:55:08.000Z</time>
      </trkpt>
      <trkpt lat="43.46154" lon="3.77831">
        <ele>47.58</ele>
        <time>2018-06-04T13:55:16.000Z</time>
      </trkpt>
      <trkpt lat="43.4615" lon="3.7782">
        <ele>47.57</ele>
        <time>2018-06-04T13:55:23.000Z</time>
      </trkpt>
      <trkpt lat="43.46146" lon="3.77808">
        <ele>47.55</ele>
        <time>2018-06-04T13:55:33.000Z</time>
      </trkpt>
      <trkpt lat="43.4614" lon="3.77797">
        <ele>47.54</ele>
        <time>2018-06-04T13:55:43.000Z</time>
      </trkpt>
      <trkpt lat="43.46135" lon="3.77786">
        <ele>47.53</ele>
        <time>2018-06-04T13:55:53.000Z</time>
      </trkpt>
      <trkpt lat="43.46131" lon="3.77773">
        <ele>47.51</ele>
        <time>2018-06-04T13:56:07.000Z</time>
      </trkpt>
      <trkpt lat="43.46128" lon="3.77761">
        <ele>47.51</ele>
        <time>2018-06-04T13:56:39.000Z</time>
      </trkpt>
      <trkpt lat="43.46124" lon="3.77749">
        <ele>47.51</ele>
        <time>2018-06-04T13:56:50.000Z</time>
      </trkpt>
      <trkpt lat="43.46119" lon="3.77738">
        <ele>47.52</ele>
        <time>2018-06-04T13:56:59.000Z</time>
      </trkpt>
      <trkpt lat="43.46115" lon="3.77727">
        <ele>47.53</ele>
        <time>2018-06-04T13:57:08.000Z</time>
      </trkpt>
      <trkpt lat="43.46111" lon="3.77716">
        <ele>47.54</ele>
        <time>2018-06-04T13:57:18.000Z</time>
      </trkpt>
      <trkpt lat="43.46106" lon="3.77704">
        <ele>47.56</ele>
        <time>2018-06-04T13:57:29.000Z</time>
      </trkpt>
      <trkpt lat="43.46103" lon="3.77692">
        <ele>47.58</ele>
        <time>2018-06-04T13:58:01.000Z</time>
      </trkpt>
      <trkpt lat="43.46098" lon="3.77681">
        <ele>47.61</ele>
        <time>2018-06-04T13:58:10.000Z</time>
      </trkpt>
      <trkpt lat="43.46095" lon="3.77669">
        <ele>47.63</ele>
        <time>2018-06-04T13:58:19.000Z</time>
      </trkpt>
      <trkpt lat="43.4609" lon="3.77658">
        <ele>47.65</ele>
        <time>2018-06-04T13:58:28.000Z</time>
      </trkpt>
      <trkpt lat="43.46085" lon="3.77647">
        <ele>47.66</ele>
        <time>2018-06-04T13:58:37.000Z</time>
      </trkpt>
      <trkpt lat="43.46081" lon="3.77636">
        <ele>47.68</ele>
        <time>2018-06-04T13:58:45.000Z</time>
      </trkpt>
      <trkpt lat="43.46076" lon="3.77625">
        <ele>47.69</ele>
        <time>2018-06-04T13:58:54.000Z</time>
      </trkpt>
      <trkpt lat="43.46073" lon="3.77612">
        <ele>47.7</ele>
        <time>2018-06-04T13:59:03.000Z</time>
      </trkpt>
      <trkpt lat="43.46069" lon="3.77601">
        <ele>47.72</ele>
        <time>2018-06-04T13:59:17.000Z</time>
      </trkpt>
      <trkpt lat="43.46064" lon="3.77589">
        <ele>47.74</ele>
        <time>2018-06-04T13:59:26.000Z</time>
      </trkpt>
      <trkpt lat="43.46059" lon="3.77578">
        <ele>47.75</ele>
        <time>2018-06-04T13:59:36.000Z</time>
      </trkpt>
      <trkpt lat="43.46054" lon="3.77568">
        <ele>47.78</ele>
        <time>2018-06-04T13:59:54.000Z</time>
      </trkpt>
      <trkpt lat="43.46048" lon="3.77558">
        <ele>47.81</ele>
        <time>2018-06-04T14:00:09.000Z</time>
      </trkpt>
      <trkpt lat="43.46042" lon="3.77548">
        <ele>47.84</ele>
        <time>2018-06-04T14:00:18.000Z</time>
      </trkpt>
      <trkpt lat="43.46037" lon="3.77536">
        <ele>47.86</ele>
        <time>2018-06-04T14:00:28.000Z</time>
      </trkpt>
      <trkpt lat="43.46028" lon="3.77527">
        <ele>47.88</ele>
        <time>2018-06-04T14:00:38.000Z</time>
      </trkpt>
      <trkpt lat="43.46021" lon="3.77519">
        <ele>47.9</ele>
        <time>2018-06-04T14:00:48.000Z</time>
      </trkpt>
      <trkpt lat="43.46014" lon="3.77508">
        <ele>47.91</ele>
        <time>2018-06-04T14:00:56.000Z</time>
      </trkpt>
      <trkpt lat="43.4601" lon="3.77496">
        <ele>47.93</ele>
        <time>2018-06-04T14:01:05.000Z</time>
      </trkpt>
      <trkpt lat="43.46007" lon="3.77484">
        <ele>47.95</ele>
        <time>2018-06-04T14:01:14.000Z</time>
      </trkpt>
      <trkpt lat="43.46005" lon="3.77471">
        <ele>47.97</ele>
        <time>2018-06-04T14:01:23.000Z</time>
      </trkpt>
      <trkpt lat="43.46001" lon="3.7746">
        <ele>47.98</ele>
        <time>2018-06-04T14:01:33.000Z</time>
      </trkpt>
      <trkpt lat="43.46003" lon="3.77446">
        <ele>47.98</ele>
        <time>2018-06-04T14:01:41.000Z</time>
      </trkpt>
      <trkpt lat="43.46" lon="3.77433">
        <ele>47.99</ele>
        <time>2018-06-04T14:01:48.000Z</time>
      </trkpt>
      <trkpt lat="43.45997" lon="3.77421">
        <ele>48</ele>
        <time>2018-06-04T14:01:57.000Z</time>
      </trkpt>
      <trkpt lat="43.45994" lon="3.77409">
        <ele>48.01</ele>
        <time>2018-06-04T14:02:05.000Z</time>
      </trkpt>
      <trkpt lat="43.45989" lon="3.77397">
        <ele>48.02</ele>
        <time>2018-06-04T14:02:12.000Z</time>
      </trkpt>
      <trkpt lat="43.45986" lon="3.77385">
        <ele>48.04</ele>
        <time>2018-06-04T14:02:20.000Z</time>
      </trkpt>
      <trkpt lat="43.45983" lon="3.77373">
        <ele>48.05</ele>
        <time>2018-06-04T14:02:29.000Z</time>
      </trkpt>
      <trkpt lat="43.45979" lon="3.77362">
        <ele>48.06</ele>
        <time>2018-06-04T14:02:37.000Z</time>
      </trkpt>
      <trkpt lat="43.45977" lon="3.7735">
        <ele>48.07</ele>
        <time>2018-06-04T14:02:46.000Z</time>
      </trkpt>
      <trkpt lat="43.45975" lon="3.77338">
        <ele>48.09</ele>
        <time>2018-06-04T14:02:55.000Z</time>
      </trkpt>
      <trkpt lat="43.45971" lon="3.77326">
        <ele>48.1</ele>
        <time>2018-06-04T14:03:05.000Z</time>
      </trkpt>
      <trkpt lat="43.45969" lon="3.77314">
        <ele>48.1</ele>
        <time>2018-06-04T14:03:14.000Z</time>
      </trkpt>
      <trkpt lat="43.45965" lon="3.77302">
        <ele>48.11</ele>
        <time>2018-06-04T14:03:21.000Z</time>
      </trkpt>
      <trkpt lat="43.4596" lon="3.77291">
        <ele>48.12</ele>
        <time>2018-06-04T14:03:30.000Z</time>
      </trkpt>
      <trkpt lat="43.45955" lon="3.7728">
        <ele>48.12</ele>
        <time>2018-06-04T14:03:38.000Z</time>
      </trkpt>
      <trkpt lat="43.45952" lon="3.77267">
        <ele>48.11</ele>
        <time>2018-06-04T14:03:47.000Z</time>
      </trkpt>
      <trkpt lat="43.4595" lon="3.77255">
        <ele>48.1</ele>
        <time>2018-06-04T14:03:55.000Z</time>
      </trkpt>
      <trkpt lat="43.45948" lon="3.77242">
        <ele>48.09</ele>
        <time>2018-06-04T14:04:05.000Z</time>
      </trkpt>
      <trkpt lat="43.45945" lon="3.77228">
        <ele>48.08</ele>
        <time>2018-06-04T14:04:13.000Z</time>
      </trkpt>
      <trkpt lat="43.45942" lon="3.77215">
        <ele>48.07</ele>
        <time>2018-06-04T14:04:20.000Z</time>
      </trkpt>
      <trkpt lat="43.45939" lon="3.77204">
        <ele>48.08</ele>
        <time>2018-06-04T14:04:31.000Z</time>
      </trkpt>
      <trkpt lat="43.45936" lon="3.77191">
        <ele>48.08</ele>
        <time>2018-06-04T14:04:41.000Z</time>
      </trkpt>
      <trkpt lat="43.45936" lon="3.77175">
        <ele>48.08</ele>
        <time>2018-06-04T14:04:50.000Z</time>
      </trkpt>
      <trkpt lat="43.45935" lon="3.77161">
        <ele>48.08</ele>
        <time>2018-06-04T14:05:01.000Z</time>
      </trkpt>
      <trkpt lat="43.45933" lon="3.77149">
        <ele>48.08</ele>
        <time>2018-06-04T14:05:09.000Z</time>
      </trkpt>
      <trkpt lat="43.45932" lon="3.77136">
        <ele>48.08</ele>
        <time>2018-06-04T14:05:20.000Z</time>
      </trkpt>
      <trkpt lat="43.45933" lon="3.77123">
        <ele>48.08</ele>
        <time>2018-06-04T14:05:33.000Z</time>
      </trkpt>
      <trkpt lat="43.45931" lon="3.77111">
        <ele>48.08</ele>
        <time>2018-06-04T14:05:41.000Z</time>
      </trkpt>
      <trkpt lat="43.4593" lon="3.77098">
        <ele>48.09</ele>
        <time>2018-06-04T14:05:49.000Z</time>
      </trkpt>
      <trkpt lat="43.45929" lon="3.77084">
        <ele>48.11</ele>
        <time>2018-06-04T14:06:00.000Z</time>
      </trkpt>
      <trkpt lat="43.45922" lon="3.77074">
        <ele>48.2</ele>
        <time>2018-06-04T14:06:48.000Z</time>
      </trkpt>
      <trkpt lat="43.45921" lon="3.77062">
        <ele>48.23</ele>
        <time>2018-06-04T14:07:01.000Z</time>
      </trkpt>
      <trkpt lat="43.45922" lon="3.77049">
        <ele>48.24</ele>
        <time>2018-06-04T14:07:14.000Z</time>
      </trkpt>
      <trkpt lat="43.45923" lon="3.77036">
        <ele>48.24</ele>
        <time>2018-06-04T14:07:22.000Z</time>
      </trkpt>
      <trkpt lat="43.45921" lon="3.77023">
        <ele>48.25</ele>
        <time>2018-06-04T14:07:32.000Z</time>
      </trkpt>
      <trkpt lat="43.45918" lon="3.77011">
        <ele>48.26</ele>
        <time>2018-06-04T14:07:39.000Z</time>
      </trkpt>
      <trkpt lat="43.45917" lon="3.76998">
        <ele>48.27</ele>
        <time>2018-06-04T14:07:48.000Z</time>
      </trkpt>
      <trkpt lat="43.45914" lon="3.76985">
        <ele>48.25</ele>
        <time>2018-06-04T14:07:59.000Z</time>
      </trkpt>
      <trkpt lat="43.45916" lon="3.76972">
        <ele>48.21</ele>
        <time>2018-06-04T14:08:08.000Z</time>
      </trkpt>
      <trkpt lat="43.45913" lon="3.76959">
        <ele>48.18</ele>
        <time>2018-06-04T14:08:17.000Z</time>
      </trkpt>
      <trkpt lat="43.45912" lon="3.76947">
        <ele>48.14</ele>
        <time>2018-06-04T14:08:36.000Z</time>
      </trkpt>
      <trkpt lat="43.45904" lon="3.76952">
        <ele>48.16</ele>
        <time>2018-06-04T14:10:12.000Z</time>
      </trkpt>
      <trkpt lat="43.45898" lon="3.76962">
        <ele>48.16</ele>
        <time>2018-06-04T14:10:24.000Z</time>
      </trkpt>
      <trkpt lat="43.4589" lon="3.7697">
        <ele>48.17</ele>
        <time>2018-06-04T14:10:37.000Z</time>
      </trkpt>
      <trkpt lat="43.45884" lon="3.7698">
        <ele>48.18</ele>
        <time>2018-06-04T14:10:45.000Z</time>
      </trkpt>
      <trkpt lat="43.45877" lon="3.7699">
        <ele>48.19</ele>
        <time>2018-06-04T14:10:54.000Z</time>
      </trkpt>
      <trkpt lat="43.45871" lon="3.77">
        <ele>48.22</ele>
        <time>2018-06-04T14:11:02.000Z</time>
      </trkpt>
      <trkpt lat="43.45865" lon="3.77009">
        <ele>48.25</ele>
        <time>2018-06-04T14:11:10.000Z</time>
      </trkpt>
      <trkpt lat="43.45857" lon="3.77016">
        <ele>48.31</ele>
        <time>2018-06-04T14:11:30.000Z</time>
      </trkpt>
      <trkpt lat="43.45853" lon="3.77029">
        <ele>48.36</ele>
        <time>2018-06-04T14:12:02.000Z</time>
      </trkpt>
      <trkpt lat="43.45847" lon="3.77039">
        <ele>48.38</ele>
        <time>2018-06-04T14:12:12.000Z</time>
      </trkpt>
      <trkpt lat="43.4584" lon="3.77049">
        <ele>48.39</ele>
        <time>2018-06-04T14:12:20.000Z</time>
      </trkpt>
      <trkpt lat="43.45834" lon="3.77058">
        <ele>48.4</ele>
        <time>2018-06-04T14:12:27.000Z</time>
      </trkpt>
      <trkpt lat="43.45828" lon="3.77068">
        <ele>48.41</ele>
        <time>2018-06-04T14:12:35.000Z</time>
      </trkpt>
      <trkpt lat="43.45822" lon="3.77077">
        <ele>48.42</ele>
        <time>2018-06-04T14:12:44.000Z</time>
      </trkpt>
      <trkpt lat="43.45815" lon="3.77086">
        <ele>48.42</ele>
        <time>2018-06-04T14:12:52.000Z</time>
      </trkpt>
      <trkpt lat="43.45808" lon="3.77096">
        <ele>48.42</ele>
        <time>2018-06-04T14:13:02.000Z</time>
      </trkpt>
      <trkpt lat="43.45801" lon="3.77105">
        <ele>48.42</ele>
        <time>2018-06-04T14:13:09.000Z</time>
      </trkpt>
      <trkpt lat="43.45794" lon="3.77115">
        <ele>48.41</ele>
        <time>2018-06-04T14:13:20.000Z</time>
      </trkpt>
      <trkpt lat="43.45788" lon="3.77125">
        <ele>48.41</ele>
        <time>2018-06-04T14:13:29.000Z</time>
      </trkpt>
      <trkpt lat="43.45781" lon="3.77134">
        <ele>48.4</ele>
        <time>2018-06-04T14:13:40.000Z</time>
      </trkpt>
      <trkpt lat="43.45774" lon="3.77141">
        <ele>48.4</ele>
        <time>2018-06-04T14:13:47.000Z</time>
      </trkpt>
      <trkpt lat="43.45766" lon="3.77151">
        <ele>48.4</ele>
        <time>2018-06-04T14:13:55.000Z</time>
      </trkpt>
      <trkpt lat="43.45758" lon="3.77159">
        <ele>48.4</ele>
        <time>2018-06-04T14:14:02.000Z</time>
      </trkpt>
      <trkpt lat="43.45751" lon="3.77168">
        <ele>48.42</ele>
        <time>2018-06-04T14:14:12.000Z</time>
      </trkpt>
      <trkpt lat="43.45745" lon="3.77179">
        <ele>48.47</ele>
        <time>2018-06-04T14:14:22.000Z</time>
      </trkpt>
      <trkpt lat="43.45738" lon="3.77189">
        <ele>48.52</ele>
        <time>2018-06-04T14:14:32.000Z</time>
      </trkpt>
      <trkpt lat="43.45733" lon="3.77199">
        <ele>48.57</ele>
        <time>2018-06-04T14:14:39.000Z</time>
      </trkpt>
      <trkpt lat="43.45726" lon="3.7721">
        <ele>48.62</ele>
        <time>2018-06-04T14:14:47.000Z</time>
      </trkpt>
      <trkpt lat="43.4572" lon="3.77219">
        <ele>48.7</ele>
        <time>2018-06-04T14:14:55.000Z</time>
      </trkpt>
      <trkpt lat="43.45713" lon="3.77229">
        <ele>48.78</ele>
        <time>2018-06-04T14:15:04.000Z</time>
      </trkpt>
      <trkpt lat="43.45707" lon="3.77239">
        <ele>48.85</ele>
        <time>2018-06-04T14:15:13.000Z</time>
      </trkpt>
      <trkpt lat="43.45701" lon="3.77249">
        <ele>48.9</ele>
        <time>2018-06-04T14:15:21.000Z</time>
      </trkpt>
      <trkpt lat="43.45693" lon="3.77258">
        <ele>48.93</ele>
        <time>2018-06-04T14:15:31.000Z</time>
      </trkpt>
      <trkpt lat="43.45686" lon="3.77267">
        <ele>48.94</ele>
        <time>2018-06-04T14:15:39.000Z</time>
      </trkpt>
      <trkpt lat="43.45681" lon="3.77278">
        <ele>48.94</ele>
        <time>2018-06-04T14:15:49.000Z</time>
      </trkpt>
      <trkpt lat="43.45681" lon="3.77291">
        <ele>48.97</ele>
        <time>2018-06-04T14:17:33.000Z</time>
      </trkpt>
      <trkpt lat="43.45685" lon="3.77303">
        <ele>49.02</ele>
        <time>2018-06-04T14:17:44.000Z</time>
      </trkpt>
      <trkpt lat="43.45689" lon="3.77314">
        <ele>49.06</ele>
        <time>2018-06-04T14:17:54.000Z</time>
      </trkpt>
      <trkpt lat="43.45693" lon="3.77326">
        <ele>49.07</ele>
        <time>2018-06-04T14:18:02.000Z</time>
      </trkpt>
      <trkpt lat="43.45696" lon="3.77338">
        <ele>49.09</ele>
        <time>2018-06-04T14:18:10.000Z</time>
      </trkpt>
      <trkpt lat="43.45697" lon="3.77352">
        <ele>49.12</ele>
        <time>2018-06-04T14:18:18.000Z</time>
      </trkpt>
      <trkpt lat="43.45702" lon="3.77363">
        <ele>49.15</ele>
        <time>2018-06-04T14:18:26.000Z</time>
      </trkpt>
      <trkpt lat="43.45707" lon="3.77375">
        <ele>49.19</ele>
        <time>2018-06-04T14:18:37.000Z</time>
      </trkpt>
      <trkpt lat="43.4571" lon="3.77386">
        <ele>49.21</ele>
        <time>2018-06-04T14:18:46.000Z</time>
      </trkpt>
      <trkpt lat="43.45715" lon="3.77398">
        <ele>49.23</ele>
        <time>2018-06-04T14:18:54.000Z</time>
      </trkpt>
      <trkpt lat="43.45719" lon="3.77409">
        <ele>49.25</ele>
        <time>2018-06-04T14:19:02.000Z</time>
      </trkpt>
      <trkpt lat="43.45723" lon="3.7742">
        <ele>49.27</ele>
        <time>2018-06-04T14:19:14.000Z</time>
      </trkpt>
      <trkpt lat="43.45728" lon="3.77432">
        <ele>49.29</ele>
        <time>2018-06-04T14:19:46.000Z</time>
      </trkpt>
      <trkpt lat="43.45732" lon="3.77443">
        <ele>49.31</ele>
        <time>2018-06-04T14:19:57.000Z</time>
      </trkpt>
      <trkpt lat="43.45736" lon="3.77455">
        <ele>49.32</ele>
        <time>2018-06-04T14:20:07.000Z</time>
      </trkpt>
      <trkpt lat="43.45741" lon="3.77466">
        <ele>49.33</ele>
        <time>2018-06-04T14:20:16.000Z</time>
      </trkpt>
      <trkpt lat="43.45746" lon="3.77478">
        <ele>49.34</ele>
        <time>2018-06-04T14:20:25.000Z</time>
      </trkpt>
      <trkpt lat="43.45747" lon="3.77491">
        <ele>49.34</ele>
        <time>2018-06-04T14:20:35.000Z</time>
      </trkpt>
      <trkpt lat="43.45748" lon="3.77503">
        <ele>49.35</ele>
        <time>2018-06-04T14:20:43.000Z</time>
      </trkpt>
      <trkpt lat="43.45744" lon="3.77515">
        <ele>49.34</ele>
        <time>2018-06-04T14:21:12.999Z</time>
      </trkpt>
      <trkpt lat="43.45738" lon="3.77523">
        <ele>49.33</ele>
        <time>2018-06-04T14:21:21.999Z</time>
      </trkpt>
      <trkpt lat="43.45729" lon="3.7753">
        <ele>49.34</ele>
        <time>2018-06-04T14:22:46.999Z</time>
      </trkpt>
      <trkpt lat="43.45723" lon="3.77538">
        <ele>49.35</ele>
        <time>2018-06-04T14:22:54.999Z</time>
      </trkpt>
      <trkpt lat="43.45715" lon="3.77546">
        <ele>49.36</ele>
        <time>2018-06-04T14:23:03.999Z</time>
      </trkpt>
      <trkpt lat="43.45708" lon="3.77555">
        <ele>49.39</ele>
        <time>2018-06-04T14:23:14.999Z</time>
      </trkpt>
      <trkpt lat="43.45701" lon="3.77564">
        <ele>49.42</ele>
        <time>2018-06-04T14:23:23.999Z</time>
      </trkpt>
      <trkpt lat="43.45697" lon="3.77575">
        <ele>49.44</ele>
        <time>2018-06-04T14:23:32.999Z</time>
      </trkpt>
      <trkpt lat="43.45694" lon="3.77586">
        <ele>49.45</ele>
        <time>2018-06-04T14:23:41.999Z</time>
      </trkpt>
      <trkpt lat="43.45693" lon="3.77599">
        <ele>49.46</ele>
        <time>2018-06-04T14:23:52.999Z</time>
      </trkpt>
      <trkpt lat="43.45691" lon="3.77612">
        <ele>49.47</ele>
        <time>2018-06-04T14:24:02.999Z</time>
      </trkpt>
      <trkpt lat="43.45689" lon="3.77625">
        <ele>49.46</ele>
        <time>2018-06-04T14:24:12.999Z</time>
      </trkpt>
      <trkpt lat="43.45688" lon="3.77637">
        <ele>49.45</ele>
        <time>2018-06-04T14:24:22.999Z</time>
      </trkpt>
      <trkpt lat="43.45687" lon="3.7765">
        <ele>49.43</ele>
        <time>2018-06-04T14:24:30.999Z</time>
      </trkpt>
      <trkpt lat="43.45687" lon="3.77663">
        <ele>49.42</ele>
        <time>2018-06-04T14:24:38.999Z</time>
      </trkpt>
      <trkpt lat="43.45685" lon="3.77676">
        <ele>49.41</ele>
        <time>2018-06-04T14:24:48.999Z</time>
      </trkpt>
      <trkpt lat="43.45683" lon="3.77688">
        <ele>49.4</ele>
        <time>2018-06-04T14:24:57.999Z</time>
      </trkpt>
      <trkpt lat="43.45681" lon="3.777">
        <ele>49.39</ele>
        <time>2018-06-04T14:25:07.999Z</time>
      </trkpt>
      <trkpt lat="43.45681" lon="3.77713">
        <ele>49.38</ele>
        <time>2018-06-04T14:25:17.999Z</time>
      </trkpt>
      <trkpt lat="43.4568" lon="3.77725">
        <ele>49.36</ele>
        <time>2018-06-04T14:25:26.999Z</time>
      </trkpt>
      <trkpt lat="43.45679" lon="3.77739">
        <ele>49.33</ele>
        <time>2018-06-04T14:25:36.999Z</time>
      </trkpt>
      <trkpt lat="43.45677" lon="3.77753">
        <ele>49.29</ele>
        <time>2018-06-04T14:25:45.999Z</time>
      </trkpt>
      <trkpt lat="43.45672" lon="3.77765">
        <ele>49.26</ele>
        <time>2018-06-04T14:25:54.999Z</time>
      </trkpt>
      <trkpt lat="43.45667" lon="3.77776">
        <ele>49.24</ele>
        <time>2018-06-04T14:26:02.999Z</time>
      </trkpt>
      <trkpt lat="43.4566" lon="3.77786">
        <ele>49.23</ele>
        <time>2018-06-04T14:26:12.999Z</time>
      </trkpt>
      <trkpt lat="43.45654" lon="3.77795">
        <ele>49.23</ele>
        <time>2018-06-04T14:26:31.999Z</time>
      </trkpt>
      <trkpt lat="43.45646" lon="3.77804">
        <ele>49.23</ele>
        <time>2018-06-04T14:26:53.999Z</time>
      </trkpt>
      <trkpt lat="43.45639" lon="3.77815">
        <ele>49.23</ele>
        <time>2018-06-04T14:27:03.999Z</time>
      </trkpt>
      <trkpt lat="43.45635" lon="3.77825">
        <ele>49.22</ele>
        <time>2018-06-04T14:27:13.999Z</time>
      </trkpt>
      <trkpt lat="43.45631" lon="3.77837">
        <ele>49.23</ele>
        <time>2018-06-04T14:27:20.999Z</time>
      </trkpt>
      <trkpt lat="43.45629" lon="3.7785">
        <ele>49.24</ele>
        <time>2018-06-04T14:27:28.999Z</time>
      </trkpt>
      <trkpt lat="43.45626" lon="3.77862">
        <ele>49.25</ele>
        <time>2018-06-04T14:27:36.999Z</time>
      </trkpt>
      <trkpt lat="43.45628" lon="3.77874">
        <ele>49.27</ele>
        <time>2018-06-04T14:28:39.999Z</time>
      </trkpt>
      <trkpt lat="43.45637" lon="3.7788">
        <ele>49.23</ele>
        <time>2018-06-04T14:29:19.999Z</time>
      </trkpt>
      <trkpt lat="43.45644" lon="3.77889">
        <ele>49.22</ele>
        <time>2018-06-04T14:29:30.999Z</time>
      </trkpt>
      <trkpt lat="43.45651" lon="3.77899">
        <ele>49.2</ele>
        <time>2018-06-04T14:29:37.999Z</time>
      </trkpt>
      <trkpt lat="43.45656" lon="3.77909">
        <ele>49.17</ele>
        <time>2018-06-04T14:29:46.999Z</time>
      </trkpt>
      <trkpt lat="43.4566" lon="3.77922">
        <ele>49.12</ele>
        <time>2018-06-04T14:29:59.999Z</time>
      </trkpt>
      <trkpt lat="43.45664" lon="3.77934">
        <ele>49.1</ele>
        <time>2018-06-04T14:30:07.999Z</time>
      </trkpt>
      <trkpt lat="43.45667" lon="3.77947">
        <ele>49.06</ele>
        <time>2018-06-04T14:30:30.999Z</time>
      </trkpt>
      <trkpt lat="43.45669" lon="3.77959">
        <ele>49.05</ele>
        <time>2018-06-04T14:30:38.999Z</time>
      </trkpt>
      <trkpt lat="43.45671" lon="3.77971">
        <ele>49.04</ele>
        <time>2018-06-04T14:30:46.999Z</time>
      </trkpt>
      <trkpt lat="43.45671" lon="3.77985">
        <ele>49.02</ele>
        <time>2018-06-04T14:30:55.999Z</time>
      </trkpt>
      <trkpt lat="43.45672" lon="3.77998">
        <ele>49.09</ele>
        <time>2018-06-04T14:32:16.999Z</time>
      </trkpt>
      <trkpt lat="43.45675" lon="3.7801">
        <ele>49.11</ele>
        <time>2018-06-04T14:32:27.999Z</time>
      </trkpt>
      <trkpt lat="43.45678" lon="3.78023">
        <ele>49.13</ele>
        <time>2018-06-04T14:32:38.999Z</time>
      </trkpt>
      <trkpt lat="43.45681" lon="3.78036">
        <ele>49.15</ele>
        <time>2018-06-04T14:32:54.999Z</time>
      </trkpt>
      <trkpt lat="43.45683" lon="3.78049">
        <ele>49.15</ele>
        <time>2018-06-04T14:33:05.999Z</time>
      </trkpt>
      <trkpt lat="43.45685" lon="3.78062">
        <ele>49.15</ele>
        <time>2018-06-04T14:33:17.999Z</time>
      </trkpt>
      <trkpt lat="43.45692" lon="3.78071">
        <ele>49.14</ele>
        <time>2018-06-04T14:33:48.999Z</time>
      </trkpt>
      <trkpt lat="43.45697" lon="3.78081">
        <ele>49.13</ele>
        <time>2018-06-04T14:33:57.999Z</time>
      </trkpt>
      <trkpt lat="43.45704" lon="3.78091">
        <ele>49.11</ele>
        <time>2018-06-04T14:34:08.999Z</time>
      </trkpt>
      <trkpt lat="43.4571" lon="3.78101">
        <ele>49.08</ele>
        <time>2018-06-04T14:34:19.999Z</time>
      </trkpt>
      <trkpt lat="43.45718" lon="3.78109">
        <ele>49.05</ele>
        <time>2018-06-04T14:34:27.999Z</time>
      </trkpt>
      <trkpt lat="43.45726" lon="3.78118">
        <ele>49.01</ele>
        <time>2018-06-04T14:34:36.999Z</time>
      </trkpt>
      <trkpt lat="43.45734" lon="3.78124">
        <ele>48.96</ele>
        <time>2018-06-04T14:34:46.999Z</time>
      </trkpt>
      <trkpt lat="43.45743" lon="3.78129">
        <ele>48.91</ele>
        <time>2018-06-04T14:34:54.999Z</time>
      </trkpt>
      <trkpt lat="43.4575" lon="3.78138">
        <ele>48.87</ele>
        <time>2018-06-04T14:35:02.999Z</time>
      </trkpt>
      <trkpt lat="43.45756" lon="3.78147">
        <ele>48.83</ele>
        <time>2018-06-04T14:35:10.999Z</time>
      </trkpt>
      <trkpt lat="43.45763" lon="3.78156">
        <ele>48.77</ele>
        <time>2018-06-04T14:35:20.999Z</time>
      </trkpt>
      <trkpt lat="43.45771" lon="3.78163">
        <ele>48.65</ele>
        <time>2018-06-04T14:35:42.999Z</time>
      </trkpt>
      <trkpt lat="43.45777" lon="3.78175">
        <ele>48.59</ele>
        <time>2018-06-04T14:35:51.999Z</time>
      </trkpt>
      <trkpt lat="43.45784" lon="3.78183">
        <ele>48.54</ele>
        <time>2018-06-04T14:36:01.999Z</time>
      </trkpt>
      <trkpt lat="43.45792" lon="3.78191">
        <ele>48.48</ele>
        <time>2018-06-04T14:36:23.999Z</time>
      </trkpt>
      <trkpt lat="43.458" lon="3.78197">
        <ele>48.43</ele>
        <time>2018-06-04T14:36:44.999Z</time>
      </trkpt>
      <trkpt lat="43.45809" lon="3.78202">
        <ele>48.37</ele>
        <time>2018-06-04T14:37:26.999Z</time>
      </trkpt>
      <trkpt lat="43.45818" lon="3.78208">
        <ele>48.35</ele>
        <time>2018-06-04T14:37:34.999Z</time>
      </trkpt>
      <trkpt lat="43.45826" lon="3.78214">
        <ele>48.34</ele>
        <time>2018-06-04T14:37:42.999Z</time>
      </trkpt>
      <trkpt lat="43.45833" lon="3.78221">
        <ele>48.28</ele>
        <time>2018-06-04T14:38:19.999Z</time>
      </trkpt>
      <trkpt lat="43.45842" lon="3.78227">
        <ele>48.27</ele>
        <time>2018-06-04T14:38:29.999Z</time>
      </trkpt>
      <trkpt lat="43.45848" lon="3.78236">
        <ele>48.25</ele>
        <time>2018-06-04T14:39:03.999Z</time>
      </trkpt>
      <trkpt lat="43.45857" lon="3.78239">
        <ele>48.18</ele>
        <time>2018-06-04T14:39:59.999Z</time>
      </trkpt>
      <trkpt lat="43.45863" lon="3.78249">
        <ele>48.01</ele>
        <time>2018-06-04T14:42:16.999Z</time>
      </trkpt>
      <trkpt lat="43.45872" lon="3.78251">
        <ele>47.96</ele>
        <time>2018-06-04T14:42:50.999Z</time>
      </trkpt>
      <trkpt lat="43.4588" lon="3.78259">
        <ele>47.91</ele>
        <time>2018-06-04T14:43:36.999Z</time>
      </trkpt>
      <trkpt lat="43.45889" lon="3.78265">
        <ele>47.91</ele>
        <time>2018-06-04T14:43:45.999Z</time>
      </trkpt>
      <trkpt lat="43.45897" lon="3.78271">
        <ele>47.9</ele>
        <time>2018-06-04T14:43:55.999Z</time>
      </trkpt>
      <trkpt lat="43.45905" lon="3.78276">
        <ele>47.91</ele>
        <time>2018-06-04T14:44:02.999Z</time>
      </trkpt>
      <trkpt lat="43.45914" lon="3.78282">
        <ele>47.91</ele>
        <time>2018-06-04T14:44:11.999Z</time>
      </trkpt>
      <trkpt lat="43.45923" lon="3.78286">
        <ele>47.9</ele>
        <time>2018-06-04T14:44:22.999Z</time>
      </trkpt>
      <trkpt lat="43.45931" lon="3.7829">
        <ele>47.89</ele>
        <time>2018-06-04T14:44:33.999Z</time>
      </trkpt>
      <trkpt lat="43.4594" lon="3.78296">
        <ele>47.88</ele>
        <time>2018-06-04T14:44:42.999Z</time>
      </trkpt>
      <trkpt lat="43.45947" lon="3.78302">
        <ele>47.86</ele>
        <time>2018-06-04T14:44:50.999Z</time>
      </trkpt>
      <trkpt lat="43.45954" lon="3.78312">
        <ele>47.85</ele>
        <time>2018-06-04T14:45:00.999Z</time>
      </trkpt>
      <trkpt lat="43.45961" lon="3.78321">
        <ele>47.82</ele>
        <time>2018-06-04T14:45:11.999Z</time>
      </trkpt>
      <trkpt lat="43.4597" lon="3.78328">
        <ele>47.8</ele>
        <time>2018-06-04T14:45:21.999Z</time>
      </trkpt>
      <trkpt lat="43.45978" lon="3.78335">
        <ele>47.78</ele>
        <time>2018-06-04T14:45:29.999Z</time>
      </trkpt>
      <trkpt lat="43.45986" lon="3.78342">
        <ele>47.77</ele>
        <time>2018-06-04T14:45:36.999Z</time>
      </trkpt>
      <trkpt lat="43.45993" lon="3.7835">
        <ele>47.76</ele>
        <time>2018-06-04T14:45:43.999Z</time>
      </trkpt>
      <trkpt lat="43.46" lon="3.78358">
        <ele>47.74</ele>
        <time>2018-06-04T14:45:52.999Z</time>
      </trkpt>
      <trkpt lat="43.46008" lon="3.78366">
        <ele>47.72</ele>
        <time>2018-06-04T14:46:02.999Z</time>
      </trkpt>
      <trkpt lat="43.46015" lon="3.78375">
        <ele>47.69</ele>
        <time>2018-06-04T14:46:10.999Z</time>
      </trkpt>
      <trkpt lat="43.46023" lon="3.78383">
        <ele>47.66</ele>
        <time>2018-06-04T14:46:20.999Z</time>
      </trkpt>
      <trkpt lat="43.46026" lon="3.78396">
        <ele>47.61</ele>
        <time>2018-06-04T14:46:34.999Z</time>
      </trkpt>
      <trkpt lat="43.46019" lon="3.78406">
        <ele>47.55</ele>
        <time>2018-06-04T14:46:53.999Z</time>
      </trkpt>
      <trkpt lat="43.46011" lon="3.78413">
        <ele>47.5</ele>
        <time>2018-06-04T14:47:01.999Z</time>
      </trkpt>
      <trkpt lat="43.46005" lon="3.78422">
        <ele>47.45</ele>
        <time>2018-06-04T14:47:11.999Z</time>
      </trkpt>
      <trkpt lat="43.45998" lon="3.78433">
        <ele>47.42</ele>
        <time>2018-06-04T14:47:22.999Z</time>
      </trkpt>
      <trkpt lat="43.45992" lon="3.78443">
        <ele>47.41</ele>
        <time>2018-06-04T14:47:30.999Z</time>
      </trkpt>
      <trkpt lat="43.45985" lon="3.78453">
        <ele>47.41</ele>
        <time>2018-06-04T14:47:39.999Z</time>
      </trkpt>
      <trkpt lat="43.45977" lon="3.7846">
        <ele>47.42</ele>
        <time>2018-06-04T14:47:49.999Z</time>
      </trkpt>
      <trkpt lat="43.4597" lon="3.78471">
        <ele>47.43</ele>
        <time>2018-06-04T14:47:57.999Z</time>
      </trkpt>
      <trkpt lat="43.45963" lon="3.7848">
        <ele>47.45</ele>
        <time>2018-06-04T14:48:06.999Z</time>
      </trkpt>
      <trkpt lat="43.45956" lon="3.7849">
        <ele>47.46</ele>
        <time>2018-06-04T14:48:15.999Z</time>
      </trkpt>
      <trkpt lat="43.4595" lon="3.785">
        <ele>47.48</ele>
        <time>2018-06-04T14:48:25.999Z</time>
      </trkpt>
      <trkpt lat="43.45943" lon="3.78509">
        <ele>47.5</ele>
        <time>2018-06-04T14:48:33.999Z</time>
      </trkpt>
      <trkpt lat="43.45937" lon="3.78518">
        <ele>47.53</ele>
        <time>2018-06-04T14:48:44.999Z</time>
      </trkpt>
      <trkpt lat="43.45928" lon="3.78525">
        <ele>47.54</ele>
        <time>2018-06-04T14:48:52.999Z</time>
      </trkpt>
      <trkpt lat="43.4592" lon="3.78532">
        <ele>47.56</ele>
        <time>2018-06-04T14:49:01.999Z</time>
      </trkpt>
      <trkpt lat="43.45913" lon="3.78541">
        <ele>47.57</ele>
        <time>2018-06-04T14:49:08.999Z</time>
      </trkpt>
      <trkpt lat="43.45904" lon="3.78549">
        <ele>47.58</ele>
        <time>2018-06-04T14:49:17.999Z</time>
      </trkpt>
      <trkpt lat="43.45897" lon="3.78557">
        <ele>47.6</ele>
        <time>2018-06-04T14:49:25.999Z</time>
      </trkpt>
      <trkpt lat="43.45892" lon="3.78568">
        <ele>47.61</ele>
        <time>2018-06-04T14:49:34.999Z</time>
      </trkpt>
      <trkpt lat="43.45887" lon="3.78579">
        <ele>47.62</ele>
        <time>2018-06-04T14:49:44.999Z</time>
      </trkpt>
      <trkpt lat="43.45882" lon="3.78591">
        <ele>47.62</ele>
        <time>2018-06-04T14:49:53.999Z</time>
      </trkpt>
      <trkpt lat="43.45876" lon="3.78602">
        <ele>47.61</ele>
        <time>2018-06-04T14:50:03.000Z</time>
      </trkpt>
      <trkpt lat="43.45869" lon="3.78611">
        <ele>47.62</ele>
        <time>2018-06-04T14:50:12.000Z</time>
      </trkpt>
      <trkpt lat="43.45863" lon="3.78621">
        <ele>47.63</ele>
        <time>2018-06-04T14:50:22.000Z</time>
      </trkpt>
      <trkpt lat="43.45858" lon="3.78633">
        <ele>47.64</ele>
        <time>2018-06-04T14:50:31.000Z</time>
      </trkpt>
      <trkpt lat="43.45853" lon="3.78645">
        <ele>47.65</ele>
        <time>2018-06-04T14:50:41.000Z</time>
      </trkpt>
      <trkpt lat="43.45849" lon="3.78657">
        <ele>47.65</ele>
        <time>2018-06-04T14:50:48.000Z</time>
      </trkpt>
      <trkpt lat="43.45847" lon="3.78671">
        <ele>47.63</ele>
        <time>2018-06-04T14:50:58.000Z</time>
      </trkpt>
      <trkpt lat="43.45849" lon="3.78684">
        <ele>47.61</ele>
        <time>2018-06-04T14:51:06.000Z</time>
      </trkpt>
      <trkpt lat="43.45853" lon="3.78696">
        <ele>47.58</ele>
        <time>2018-06-04T14:51:16.000Z</time>
      </trkpt>
      <trkpt lat="43.45857" lon="3.78708">
        <ele>47.55</ele>
        <time>2018-06-04T14:51:25.000Z</time>
      </trkpt>
      <trkpt lat="43.45857" lon="3.78721">
        <ele>47.52</ele>
        <time>2018-06-04T14:51:33.000Z</time>
      </trkpt>
      <trkpt lat="43.45859" lon="3.78734">
        <ele>47.49</ele>
        <time>2018-06-04T14:51:40.000Z</time>
      </trkpt>
      <trkpt lat="43.45861" lon="3.78747">
        <ele>47.47</ele>
        <time>2018-06-04T14:51:48.000Z</time>
      </trkpt>
      <trkpt lat="43.45861" lon="3.78761">
        <ele>47.47</ele>
        <time>2018-06-04T14:51:58.000Z</time>
      </trkpt>
      <trkpt lat="43.4586" lon="3.78774">
        <ele>47.5</ele>
        <time>2018-06-04T14:52:05.000Z</time>
      </trkpt>
      <trkpt lat="43.4586" lon="3.78787">
        <ele>47.54</ele>
        <time>2018-06-04T14:52:16.000Z</time>
      </trkpt>
      <trkpt lat="43.45862" lon="3.788">
        <ele>47.59</ele>
        <time>2018-06-04T14:52:26.000Z</time>
      </trkpt>
      <trkpt lat="43.45863" lon="3.78813">
        <ele>47.61</ele>
        <time>2018-06-04T14:52:34.000Z</time>
      </trkpt>
      <trkpt lat="43.4586" lon="3.78825">
        <ele>47.64</ele>
        <time>2018-06-04T14:52:43.000Z</time>
      </trkpt>
      <trkpt lat="43.45858" lon="3.78839">
        <ele>47.65</ele>
        <time>2018-06-04T14:52:51.000Z</time>
      </trkpt>
      <trkpt lat="43.45857" lon="3.78852">
        <ele>47.68</ele>
        <time>2018-06-04T14:53:00.000Z</time>
      </trkpt>
      <trkpt lat="43.45856" lon="3.78865">
        <ele>47.7</ele>
        <time>2018-06-04T14:53:09.000Z</time>
      </trkpt>
      <trkpt lat="43.4585" lon="3.78876">
        <ele>47.71</ele>
        <time>2018-06-04T14:53:18.000Z</time>
      </trkpt>
      <trkpt lat="43.45845" lon="3.78887">
        <ele>47.72</ele>
        <time>2018-06-04T14:53:27.000Z</time>
      </trkpt>
      <trkpt lat="43.4584" lon="3.78898">
        <ele>47.73</ele>
        <time>2018-06-04T14:53:36.000Z</time>
      </trkpt>
      <trkpt lat="43.45834" lon="3.78908">
        <ele>47.75</ele>
        <time>2018-06-04T14:53:44.000Z</time>
      </trkpt>
      <trkpt lat="43.45829" lon="3.78919">
        <ele>47.76</ele>
        <time>2018-06-04T14:53:52.000Z</time>
      </trkpt>
      <trkpt lat="43.45824" lon="3.78929">
        <ele>47.76</ele>
        <time>2018-06-04T14:54:01.000Z</time>
      </trkpt>
      <trkpt lat="43.4582" lon="3.78941">
        <ele>47.77</ele>
        <time>2018-06-04T14:54:08.000Z</time>
      </trkpt>
      <trkpt lat="43.45813" lon="3.78951">
        <ele>47.78</ele>
        <time>2018-06-04T14:54:17.000Z</time>
      </trkpt>
      <trkpt lat="43.45806" lon="3.78959">
        <ele>47.79</ele>
        <time>2018-06-04T14:54:25.000Z</time>
      </trkpt>
      <trkpt lat="43.45802" lon="3.78971">
        <ele>47.79</ele>
        <time>2018-06-04T14:54:35.000Z</time>
      </trkpt>
      <trkpt lat="43.45804" lon="3.78983">
        <ele>47.81</ele>
        <time>2018-06-04T14:54:46.000Z</time>
      </trkpt>
      <trkpt lat="43.45807" lon="3.78996">
        <ele>47.81</ele>
        <time>2018-06-04T14:54:55.000Z</time>
      </trkpt>
      <trkpt lat="43.4581" lon="3.79009">
        <ele>47.82</ele>
        <time>2018-06-04T14:55:06.000Z</time>
      </trkpt>
      <trkpt lat="43.45811" lon="3.79022">
        <ele>47.82</ele>
        <time>2018-06-04T14:55:18.000Z</time>
      </trkpt>
      <trkpt lat="43.45815" lon="3.79034">
        <ele>47.81</ele>
        <time>2018-06-04T14:55:26.000Z</time>
      </trkpt>
      <trkpt lat="43.45818" lon="3.79046">
        <ele>47.82</ele>
        <time>2018-06-04T14:55:35.000Z</time>
      </trkpt>
      <trkpt lat="43.45821" lon="3.79058">
        <ele>47.82</ele>
        <time>2018-06-04T14:55:43.000Z</time>
      </trkpt>
      <trkpt lat="43.45826" lon="3.7907">
        <ele>47.83</ele>
        <time>2018-06-04T14:55:53.000Z</time>
      </trkpt>
      <trkpt lat="43.45828" lon="3.79083">
        <ele>47.84</ele>
        <time>2018-06-04T14:56:02.000Z</time>
      </trkpt>
      <trkpt lat="43.45829" lon="3.79096">
        <ele>47.85</ele>
        <time>2018-06-04T14:56:13.000Z</time>
      </trkpt>
      <trkpt lat="43.45834" lon="3.79108">
        <ele>47.86</ele>
        <time>2018-06-04T14:56:21.000Z</time>
      </trkpt>
      <trkpt lat="43.45834" lon="3.79122">
        <ele>47.87</ele>
        <time>2018-06-04T14:56:30.000Z</time>
      </trkpt>
      <trkpt lat="43.45833" lon="3.79134">
        <ele>47.88</ele>
        <time>2018-06-04T14:56:40.000Z</time>
      </trkpt>
      <trkpt lat="43.45835" lon="3.79147">
        <ele>47.89</ele>
        <time>2018-06-04T14:56:49.000Z</time>
      </trkpt>
      <trkpt lat="43.45834" lon="3.7916">
        <ele>47.9</ele>
        <time>2018-06-04T14:56:59.000Z</time>
      </trkpt>
      <trkpt lat="43.45836" lon="3.79172">
        <ele>47.9</ele>
        <time>2018-06-04T14:57:07.000Z</time>
      </trkpt>
      <trkpt lat="43.4584" lon="3.79184">
        <ele>47.9</ele>
        <time>2018-06-04T14:57:15.000Z</time>
      </trkpt>
      <trkpt lat="43.45845" lon="3.79194">
        <ele>47.9</ele>
        <time>2018-06-04T14:57:24.000Z</time>
      </trkpt>
      <trkpt lat="43.45851" lon="3.79204">
        <ele>47.89</ele>
        <time>2018-06-04T14:57:33.000Z</time>
      </trkpt>
      <trkpt lat="43.45858" lon="3.79213">
        <ele>47.89</ele>
        <time>2018-06-04T14:57:41.000Z</time>
      </trkpt>
      <trkpt lat="43.45865" lon="3.79224">
        <ele>47.88</ele>
        <time>2018-06-04T14:57:50.000Z</time>
      </trkpt>
      <trkpt lat="43.45872" lon="3.79232">
        <ele>47.89</ele>
        <time>2018-06-04T14:58:00.000Z</time>
      </trkpt>
      <trkpt lat="43.45878" lon="3.79242">
        <ele>47.89</ele>
        <time>2018-06-04T14:58:09.000Z</time>
      </trkpt>
      <trkpt lat="43.45883" lon="3.79254">
        <ele>47.89</ele>
        <time>2018-06-04T14:58:41.000Z</time>
      </trkpt>
      <trkpt lat="43.45889" lon="3.79263">
        <ele>47.88</ele>
        <time>2018-06-04T14:58:50.000Z</time>
      </trkpt>
      <trkpt lat="43.45895" lon="3.79274">
        <ele>47.85</ele>
        <time>2018-06-04T14:59:00.000Z</time>
      </trkpt>
      <trkpt lat="43.45901" lon="3.79284">
        <ele>47.83</ele>
        <time>2018-06-04T14:59:08.000Z</time>
      </trkpt>
      <trkpt lat="43.45908" lon="3.79293">
        <ele>47.81</ele>
        <time>2018-06-04T14:59:16.000Z</time>
      </trkpt>
      <trkpt lat="43.45916" lon="3.79301">
        <ele>47.79</ele>
        <time>2018-06-04T14:59:23.000Z</time>
      </trkpt>
      <trkpt lat="43.45918" lon="3.79314">
        <ele>47.77</ele>
        <time>2018-06-04T14:59:32.000Z</time>
      </trkpt>
      <trkpt lat="43.4592" lon="3.79327">
        <ele>47.75</ele>
        <time>2018-06-04T14:59:41.000Z</time>
      </trkpt>
      <trkpt lat="43.45923" lon="3.7934">
        <ele>47.73</ele>
        <time>2018-06-04T14:59:49.000Z</time>
      </trkpt>
      <trkpt lat="43.45927" lon="3.79351">
        <ele>47.71</ele>
        <time>2018-06-04T14:59:57.000Z</time>
      </trkpt>
      <trkpt lat="43.45932" lon="3.79362">
        <ele>47.7</ele>
        <time>2018-06-04T15:00:04.000Z</time>
      </trkpt>
      <trkpt lat="43.45937" lon="3.79374">
        <ele>47.68</ele>
        <time>2018-06-04T15:00:13.000Z</time>
      </trkpt>
      <trkpt lat="43.45941" lon="3.79386">
        <ele>47.65</ele>
        <time>2018-06-04T15:00:24.000Z</time>
      </trkpt>
      <trkpt lat="43.45947" lon="3.79396">
        <ele>47.62</ele>
        <time>2018-06-04T15:00:33.000Z</time>
      </trkpt>
      <trkpt lat="43.45952" lon="3.79407">
        <ele>47.58</ele>
        <time>2018-06-04T15:00:42.000Z</time>
      </trkpt>
      <trkpt lat="43.45956" lon="3.79419">
        <ele>47.55</ele>
        <time>2018-06-04T15:00:50.000Z</time>
      </trkpt>
      <trkpt lat="43.45961" lon="3.7943">
        <ele>47.5</ele>
        <time>2018-06-04T15:01:01.000Z</time>
      </trkpt>
      <trkpt lat="43.45967" lon="3.79441">
        <ele>47.48</ele>
        <time>2018-06-04T15:01:06.000Z</time>
      </trkpt>
      <trkpt lat="43.45972" lon="3.79452">
        <ele>47.44</ele>
        <time>2018-06-04T15:01:14.000Z</time>
      </trkpt>
      <trkpt lat="43.45974" lon="3.79466">
        <ele>47.39</ele>
        <time>2018-06-04T15:01:23.000Z</time>
      </trkpt>
      <trkpt lat="43.45976" lon="3.79479">
        <ele>47.35</ele>
        <time>2018-06-04T15:01:32.000Z</time>
      </trkpt>
      <trkpt lat="43.45979" lon="3.79491">
        <ele>47.3</ele>
        <time>2018-06-04T15:01:40.000Z</time>
      </trkpt>
      <trkpt lat="43.45982" lon="3.79503">
        <ele>47.27</ele>
        <time>2018-06-04T15:01:48.000Z</time>
      </trkpt>
      <trkpt lat="43.45984" lon="3.79516">
        <ele>47.24</ele>
        <time>2018-06-04T15:01:58.000Z</time>
      </trkpt>
      <trkpt lat="43.45985" lon="3.79528">
        <ele>47.22</ele>
        <time>2018-06-04T15:02:06.000Z</time>
      </trkpt>
      <trkpt lat="43.45987" lon="3.79541">
        <ele>47.2</ele>
        <time>2018-06-04T15:02:14.000Z</time>
      </trkpt>
      <trkpt lat="43.45986" lon="3.79554">
        <ele>47.18</ele>
        <time>2018-06-04T15:02:22.000Z</time>
      </trkpt>
      <trkpt lat="43.45985" lon="3.79567">
        <ele>47.17</ele>
        <time>2018-06-04T15:02:32.000Z</time>
      </trkpt>
      <trkpt lat="43.45981" lon="3.79577">
        <ele>47.15</ele>
        <time>2018-06-04T15:02:41.000Z</time>
      </trkpt>
      <trkpt lat="43.45978" lon="3.7959">
        <ele>47.14</ele>
        <time>2018-06-04T15:03:01.000Z</time>
      </trkpt>
      <trkpt lat="43.45971" lon="3.79596">
        <ele>47.13</ele>
        <time>2018-06-04T15:03:09.000Z</time>
      </trkpt>
      <trkpt lat="43.45964" lon="3.79606">
        <ele>47.11</ele>
        <time>2018-06-04T15:03:19.000Z</time>
      </trkpt>
      <trkpt lat="43.45959" lon="3.79617">
        <ele>47.1</ele>
        <time>2018-06-04T15:03:30.000Z</time>
      </trkpt>
      <trkpt lat="43.45963" lon="3.7963">
        <ele>47.1</ele>
        <time>2018-06-04T15:03:37.000Z</time>
      </trkpt>
      <trkpt lat="43.45964" lon="3.79642">
        <ele>47.1</ele>
        <time>2018-06-04T15:03:53.000Z</time>
      </trkpt>
      <trkpt lat="43.4597" lon="3.79654">
        <ele>47.11</ele>
        <time>2018-06-04T15:04:06.000Z</time>
      </trkpt>
      <trkpt lat="43.45976" lon="3.79665">
        <ele>47.11</ele>
        <time>2018-06-04T15:04:14.000Z</time>
      </trkpt>
      <trkpt lat="43.4598" lon="3.79677">
        <ele>47.11</ele>
        <time>2018-06-04T15:04:22.000Z</time>
      </trkpt>
      <trkpt lat="43.45984" lon="3.79689">
        <ele>47.12</ele>
        <time>2018-06-04T15:04:28.000Z</time>
      </trkpt>
      <trkpt lat="43.45988" lon="3.79701">
        <ele>47.13</ele>
        <time>2018-06-04T15:04:36.000Z</time>
      </trkpt>
      <trkpt lat="43.45991" lon="3.79714">
        <ele>47.14</ele>
        <time>2018-06-04T15:04:47.000Z</time>
      </trkpt>
      <trkpt lat="43.45994" lon="3.79727">
        <ele>47.13</ele>
        <time>2018-06-04T15:04:59.000Z</time>
      </trkpt>
      <trkpt lat="43.45996" lon="3.7974">
        <ele>47.14</ele>
        <time>2018-06-04T15:05:08.000Z</time>
      </trkpt>
      <trkpt lat="43.46001" lon="3.79751">
        <ele>47.14</ele>
        <time>2018-06-04T15:05:16.000Z</time>
      </trkpt>
      <trkpt lat="43.46006" lon="3.79762">
        <ele>47.15</ele>
        <time>2018-06-04T15:05:27.000Z</time>
      </trkpt>
      <trkpt lat="43.46007" lon="3.79776">
        <ele>47.15</ele>
        <time>2018-06-04T15:05:35.000Z</time>
      </trkpt>
      <trkpt lat="43.46004" lon="3.79788">
        <ele>47.16</ele>
        <time>2018-06-04T15:05:50.000Z</time>
      </trkpt>
      <trkpt lat="43.46005" lon="3.798">
        <ele>47.19</ele>
        <time>2018-06-04T15:05:59.000Z</time>
      </trkpt>
      <trkpt lat="43.46005" lon="3.79813">
        <ele>47.22</ele>
        <time>2018-06-04T15:06:08.000Z</time>
      </trkpt>
      <trkpt lat="43.46002" lon="3.79826">
        <ele>47.24</ele>
        <time>2018-06-04T15:06:16.000Z</time>
      </trkpt>
      <trkpt lat="43.45999" lon="3.79838">
        <ele>47.27</ele>
        <time>2018-06-04T15:06:24.000Z</time>
      </trkpt>
      <trkpt lat="43.45995" lon="3.7985">
        <ele>47.3</ele>
        <time>2018-06-04T15:06:33.000Z</time>
      </trkpt>
      <trkpt lat="43.45989" lon="3.7986">
        <ele>47.31</ele>
        <time>2018-06-04T15:06:42.000Z</time>
      </trkpt>
      <trkpt lat="43.45985" lon="3.79872">
        <ele>47.32</ele>
        <time>2018-06-04T15:06:51.000Z</time>
      </trkpt>
      <trkpt lat="43.45982" lon="3.79884">
        <ele>47.33</ele>
        <time>2018-06-04T15:06:59.000Z</time>
      </trkpt>
      <trkpt lat="43.45978" lon="3.79895">
        <ele>47.34</ele>
        <time>2018-06-04T15:07:07.000Z</time>
      </trkpt>
      <trkpt lat="43.45973" lon="3.79907">
        <ele>47.33</ele>
        <time>2018-06-04T15:07:16.000Z</time>
      </trkpt>
      <trkpt lat="43.45971" lon="3.7992">
        <ele>47.33</ele>
        <time>2018-06-04T15:07:25.000Z</time>
      </trkpt>
      <trkpt lat="43.45966" lon="3.79931">
        <ele>47.32</ele>
        <time>2018-06-04T15:07:34.000Z</time>
      </trkpt>
      <trkpt lat="43.45965" lon="3.79943">
        <ele>47.31</ele>
        <time>2018-06-04T15:07:43.000Z</time>
      </trkpt>
      <trkpt lat="43.45962" lon="3.79955">
        <ele>47.3</ele>
        <time>2018-06-04T15:07:50.000Z</time>
      </trkpt>
      <trkpt lat="43.45961" lon="3.79968">
        <ele>47.28</ele>
        <time>2018-06-04T15:07:59.000Z</time>
      </trkpt>
      <trkpt lat="43.45961" lon="3.79983">
        <ele>47.26</ele>
        <time>2018-06-04T15:08:07.000Z</time>
      </trkpt>
      <trkpt lat="43.45956" lon="3.79993">
        <ele>47.24</ele>
        <time>2018-06-04T15:08:13.000Z</time>
      </trkpt>
      <trkpt lat="43.4595" lon="3.80003">
        <ele>47.22</ele>
        <time>2018-06-04T15:08:21.000Z</time>
      </trkpt>
      <trkpt lat="43.45942" lon="3.80013">
        <ele>47.19</ele>
        <time>2018-06-04T15:08:28.000Z</time>
      </trkpt>
      <trkpt lat="43.45939" lon="3.80025">
        <ele>47.16</ele>
        <time>2018-06-04T15:08:37.000Z</time>
      </trkpt>
      <trkpt lat="43.45934" lon="3.80038">
        <ele>47.14</ele>
        <time>2018-06-04T15:08:47.000Z</time>
      </trkpt>
      <trkpt lat="43.45931" lon="3.8005">
        <ele>47.15</ele>
        <time>2018-06-04T15:08:55.000Z</time>
      </trkpt>
      <trkpt lat="43.4593" lon="3.80063">
        <ele>47.15</ele>
        <time>2018-06-04T15:09:03.000Z</time>
      </trkpt>
      <trkpt lat="43.45928" lon="3.80076">
        <ele>47.15</ele>
        <time>2018-06-04T15:09:14.000Z</time>
      </trkpt>
      <trkpt lat="43.45928" lon="3.80089">
        <ele>47.13</ele>
        <time>2018-06-04T15:09:24.000Z</time>
      </trkpt>
      <trkpt lat="43.45929" lon="3.80102">
        <ele>47.13</ele>
        <time>2018-06-04T15:09:32.000Z</time>
      </trkpt>
      <trkpt lat="43.45931" lon="3.80115">
        <ele>47.13</ele>
        <time>2018-06-04T15:09:40.000Z</time>
      </trkpt>
      <trkpt lat="43.45936" lon="3.80126">
        <ele>47.14</ele>
        <time>2018-06-04T15:09:50.000Z</time>
      </trkpt>
      <trkpt lat="43.45944" lon="3.80133">
        <ele>47.15</ele>
        <time>2018-06-04T15:09:58.000Z</time>
      </trkpt>
      <trkpt lat="43.4595" lon="3.80143">
        <ele>47.16</ele>
        <time>2018-06-04T15:10:07.000Z</time>
      </trkpt>
      <trkpt lat="43.45955" lon="3.80154">
        <ele>47.18</ele>
        <time>2018-06-04T15:10:16.000Z</time>
      </trkpt>
      <trkpt lat="43.45963" lon="3.80161">
        <ele>47.2</ele>
        <time>2018-06-04T15:10:26.000Z</time>
      </trkpt>
      <trkpt lat="43.45971" lon="3.80165">
        <ele>47.21</ele>
        <time>2018-06-04T15:10:35.000Z</time>
      </trkpt>
      <trkpt lat="43.45981" lon="3.80166">
        <ele>47.21</ele>
        <time>2018-06-04T15:10:43.000Z</time>
      </trkpt>
      <trkpt lat="43.4599" lon="3.80167">
        <ele>47.2</ele>
        <time>2018-06-04T15:10:51.000Z</time>
      </trkpt>
      <trkpt lat="43.45998" lon="3.80175">
        <ele>47.19</ele>
        <time>2018-06-04T15:11:02.000Z</time>
      </trkpt>
      <trkpt lat="43.46001" lon="3.80187">
        <ele>47.18</ele>
        <time>2018-06-04T15:11:12.000Z</time>
      </trkpt>
      <trkpt lat="43.46009" lon="3.80196">
        <ele>47.17</ele>
        <time>2018-06-04T15:11:21.000Z</time>
      </trkpt>
      <trkpt lat="43.46017" lon="3.80204">
        <ele>47.16</ele>
        <time>2018-06-04T15:11:30.000Z</time>
      </trkpt>
      <trkpt lat="43.46021" lon="3.80215">
        <ele>47.16</ele>
        <time>2018-06-04T15:11:41.000Z</time>
      </trkpt>
      <trkpt lat="43.4602" lon="3.80228">
        <ele>47.15</ele>
        <time>2018-06-04T15:11:51.000Z</time>
      </trkpt>
      <trkpt lat="43.4602" lon="3.80241">
        <ele>47.13</ele>
        <time>2018-06-04T15:12:02.000Z</time>
      </trkpt>
      <trkpt lat="43.46019" lon="3.80254">
        <ele>47.12</ele>
        <time>2018-06-04T15:12:09.000Z</time>
      </trkpt>
      <trkpt lat="43.46023" lon="3.80267">
        <ele>47.09</ele>
        <time>2018-06-04T15:12:19.000Z</time>
      </trkpt>
      <trkpt lat="43.46028" lon="3.80278">
        <ele>47.08</ele>
        <time>2018-06-04T15:12:25.000Z</time>
      </trkpt>
      <trkpt lat="43.46032" lon="3.80289">
        <ele>47.06</ele>
        <time>2018-06-04T15:12:35.000Z</time>
      </trkpt>
      <trkpt lat="43.46037" lon="3.803">
        <ele>47.06</ele>
        <time>2018-06-04T15:12:44.000Z</time>
      </trkpt>
      <trkpt lat="43.46043" lon="3.80309">
        <ele>47.05</ele>
        <time>2018-06-04T15:12:52.000Z</time>
      </trkpt>
      <trkpt lat="43.46049" lon="3.80319">
        <ele>47.03</ele>
        <time>2018-06-04T15:13:01.000Z</time>
      </trkpt>
      <trkpt lat="43.46055" lon="3.80331">
        <ele>47.02</ele>
        <time>2018-06-04T15:13:09.000Z</time>
      </trkpt>
      <trkpt lat="43.46058" lon="3.80343">
        <ele>47</ele>
        <time>2018-06-04T15:13:19.000Z</time>
      </trkpt>
      <trkpt lat="43.46061" lon="3.80356">
        <ele>46.97</ele>
        <time>2018-06-04T15:13:30.000Z</time>
      </trkpt>
      <trkpt lat="43.46066" lon="3.80367">
        <ele>46.95</ele>
        <time>2018-06-04T15:13:38.000Z</time>
      </trkpt>
      <trkpt lat="43.4607" lon="3.80379">
        <ele>46.94</ele>
        <time>2018-06-04T15:13:44.000Z</time>
      </trkpt>
      <trkpt lat="43.46073" lon="3.80391">
        <ele>46.93</ele>
        <time>2018-06-04T15:13:53.000Z</time>
      </trkpt>
      <trkpt lat="43.46072" lon="3.80404">
        <ele>46.9</ele>
        <time>2018-06-04T15:14:03.000Z</time>
      </trkpt>
      <trkpt lat="43.46072" lon="3.80417">
        <ele>46.88</ele>
        <time>2018-06-04T15:14:13.000Z</time>
      </trkpt>
      <trkpt lat="43.4607" lon="3.80429">
        <ele>46.87</ele>
        <time>2018-06-04T15:14:20.000Z</time>
      </trkpt>
      <trkpt lat="43.46067" lon="3.80441">
        <ele>46.85</ele>
        <time>2018-06-04T15:14:27.000Z</time>
      </trkpt>
      <trkpt lat="43.46069" lon="3.80454">
        <ele>46.85</ele>
        <time>2018-06-04T15:14:38.000Z</time>
      </trkpt>
      <trkpt lat="43.46069" lon="3.80467">
        <ele>46.84</ele>
        <time>2018-06-04T15:14:46.000Z</time>
      </trkpt>
      <trkpt lat="43.46074" lon="3.80479">
        <ele>46.83</ele>
        <time>2018-06-04T15:14:55.000Z</time>
      </trkpt>
      <trkpt lat="43.46073" lon="3.80491">
        <ele>46.83</ele>
        <time>2018-06-04T15:15:02.000Z</time>
      </trkpt>
      <trkpt lat="43.46072" lon="3.80505">
        <ele>46.82</ele>
        <time>2018-06-04T15:15:10.000Z</time>
      </trkpt>
      <trkpt lat="43.46073" lon="3.80518">
        <ele>46.82</ele>
        <time>2018-06-04T15:15:19.000Z</time>
      </trkpt>
      <trkpt lat="43.46076" lon="3.80531">
        <ele>46.81</ele>
        <time>2018-06-04T15:15:26.000Z</time>
      </trkpt>
      <trkpt lat="43.46078" lon="3.80544">
        <ele>46.82</ele>
        <time>2018-06-04T15:15:36.000Z</time>
      </trkpt>
      <trkpt lat="43.46079" lon="3.80557">
        <ele>46.82</ele>
        <time>2018-06-04T15:15:44.000Z</time>
      </trkpt>
      <trkpt lat="43.4608" lon="3.8057">
        <ele>46.82</ele>
        <time>2018-06-04T15:15:52.000Z</time>
      </trkpt>
      <trkpt lat="43.4608" lon="3.80583">
        <ele>46.83</ele>
        <time>2018-06-04T15:16:00.000Z</time>
      </trkpt>
      <trkpt lat="43.46079" lon="3.80598">
        <ele>46.86</ele>
        <time>2018-06-04T15:16:09.000Z</time>
      </trkpt>
      <trkpt lat="43.46079" lon="3.80612">
        <ele>46.88</ele>
        <time>2018-06-04T15:16:17.000Z</time>
      </trkpt>
      <trkpt lat="43.46077" lon="3.80625">
        <ele>46.9</ele>
        <time>2018-06-04T15:16:25.000Z</time>
      </trkpt>
      <trkpt lat="43.46076" lon="3.80637">
        <ele>46.91</ele>
        <time>2018-06-04T15:16:33.000Z</time>
      </trkpt>
      <trkpt lat="43.46075" lon="3.80649">
        <ele>46.92</ele>
        <time>2018-06-04T15:16:42.000Z</time>
      </trkpt>
      <trkpt lat="43.46077" lon="3.80663">
        <ele>46.94</ele>
        <time>2018-06-04T15:16:51.000Z</time>
      </trkpt>
      <trkpt lat="43.46074" lon="3.80675">
        <ele>46.96</ele>
        <time>2018-06-04T15:17:00.000Z</time>
      </trkpt>
      <trkpt lat="43.46067" lon="3.80685">
        <ele>46.97</ele>
        <time>2018-06-04T15:17:08.000Z</time>
      </trkpt>
      <trkpt lat="43.46059" lon="3.80693">
        <ele>46.97</ele>
        <time>2018-06-04T15:17:15.000Z</time>
      </trkpt>
      <trkpt lat="43.46052" lon="3.80701">
        <ele>46.96</ele>
        <time>2018-06-04T15:17:24.000Z</time>
      </trkpt>
      <trkpt lat="43.4605" lon="3.80714">
        <ele>46.94</ele>
        <time>2018-06-04T15:17:34.000Z</time>
      </trkpt>
      <trkpt lat="43.4605" lon="3.80728">
        <ele>46.93</ele>
        <time>2018-06-04T15:17:42.000Z</time>
      </trkpt>
      <trkpt lat="43.46048" lon="3.8074">
        <ele>46.91</ele>
        <time>2018-06-04T15:17:52.000Z</time>
      </trkpt>
      <trkpt lat="43.46046" lon="3.80754">
        <ele>46.9</ele>
        <time>2018-06-04T15:18:03.000Z</time>
      </trkpt>
      <trkpt lat="43.46044" lon="3.80767">
        <ele>46.89</ele>
        <time>2018-06-04T15:18:09.000Z</time>
      </trkpt>
      <trkpt lat="43.46042" lon="3.8078">
        <ele>46.88</ele>
        <time>2018-06-04T15:18:17.000Z</time>
      </trkpt>
      <trkpt lat="43.46041" lon="3.80793">
        <ele>46.88</ele>
        <time>2018-06-04T15:18:27.000Z</time>
      </trkpt>
      <trkpt lat="43.46041" lon="3.80807">
        <ele>46.87</ele>
        <time>2018-06-04T15:18:36.000Z</time>
      </trkpt>
      <trkpt lat="43.46045" lon="3.80818">
        <ele>46.87</ele>
        <time>2018-06-04T15:18:43.000Z</time>
      </trkpt>
      <trkpt lat="43.46045" lon="3.80832">
        <ele>46.86</ele>
        <time>2018-06-04T15:18:50.000Z</time>
      </trkpt>
      <trkpt lat="43.46048" lon="3.80845">
        <ele>46.85</ele>
        <time>2018-06-04T15:18:58.000Z</time>
      </trkpt>
      <trkpt lat="43.46051" lon="3.80859">
        <ele>46.84</ele>
        <time>2018-06-04T15:19:05.999Z</time>
      </trkpt>
      <trkpt lat="43.46054" lon="3.8087">
        <ele>46.83</ele>
        <time>2018-06-04T15:19:13.999Z</time>
      </trkpt>
      <trkpt lat="43.46057" lon="3.80883">
        <ele>46.82</ele>
        <time>2018-06-04T15:19:20.999Z</time>
      </trkpt>
      <trkpt lat="43.46059" lon="3.80896">
        <ele>46.82</ele>
        <time>2018-06-04T15:19:29.999Z</time>
      </trkpt>
      <trkpt lat="43.46063" lon="3.80909">
        <ele>46.83</ele>
        <time>2018-06-04T15:19:37.999Z</time>
      </trkpt>
      <trkpt lat="43.46068" lon="3.8092">
        <ele>46.84</ele>
        <time>2018-06-04T15:19:51.999Z</time>
      </trkpt>
      <trkpt lat="43.46075" lon="3.80929">
        <ele>46.84</ele>
        <time>2018-06-04T15:19:59.999Z</time>
      </trkpt>
      <trkpt lat="43.46082" lon="3.80937">
        <ele>46.84</ele>
        <time>2018-06-04T15:20:08.999Z</time>
      </trkpt>
      <trkpt lat="43.46088" lon="3.80947">
        <ele>46.85</ele>
        <time>2018-06-04T15:20:17.999Z</time>
      </trkpt>
      <trkpt lat="43.46098" lon="3.80952">
        <ele>46.86</ele>
        <time>2018-06-04T15:20:28.999Z</time>
      </trkpt>
      <trkpt lat="43.46107" lon="3.80956">
        <ele>46.88</ele>
        <time>2018-06-04T15:20:35.999Z</time>
      </trkpt>
      <trkpt lat="43.46116" lon="3.8096">
        <ele>46.88</ele>
        <time>2018-06-04T15:20:44.999Z</time>
      </trkpt>
      <trkpt lat="43.46124" lon="3.80967">
        <ele>46.88</ele>
        <time>2018-06-04T15:20:53.999Z</time>
      </trkpt>
      <trkpt lat="43.46134" lon="3.80968">
        <ele>46.87</ele>
        <time>2018-06-04T15:21:03.999Z</time>
      </trkpt>
      <trkpt lat="43.46143" lon="3.80969">
        <ele>46.87</ele>
        <time>2018-06-04T15:21:10.999Z</time>
      </trkpt>
      <trkpt lat="43.46153" lon="3.80973">
        <ele>46.86</ele>
        <time>2018-06-04T15:21:17.999Z</time>
      </trkpt>
      <trkpt lat="43.46162" lon="3.80979">
        <ele>46.85</ele>
        <time>2018-06-04T15:21:26.999Z</time>
      </trkpt>
      <trkpt lat="43.46171" lon="3.80985">
        <ele>46.85</ele>
        <time>2018-06-04T15:21:35.999Z</time>
      </trkpt>
      <trkpt lat="43.4618" lon="3.8099">
        <ele>46.85</ele>
        <time>2018-06-04T15:21:43.999Z</time>
      </trkpt>
      <trkpt lat="43.46187" lon="3.80997">
        <ele>46.86</ele>
        <time>2018-06-04T15:21:51.999Z</time>
      </trkpt>
      <trkpt lat="43.46196" lon="3.81003">
        <ele>46.87</ele>
        <time>2018-06-04T15:22:00.999Z</time>
      </trkpt>
      <trkpt lat="43.46205" lon="3.81007">
        <ele>46.88</ele>
        <time>2018-06-04T15:22:09.999Z</time>
      </trkpt>
      <trkpt lat="43.46214" lon="3.81011">
        <ele>46.89</ele>
        <time>2018-06-04T15:22:17.999Z</time>
      </trkpt>
      <trkpt lat="43.46223" lon="3.81016">
        <ele>46.9</ele>
        <time>2018-06-04T15:22:27.999Z</time>
      </trkpt>
      <trkpt lat="43.46232" lon="3.8102">
        <ele>46.92</ele>
        <time>2018-06-04T15:22:36.999Z</time>
      </trkpt>
      <trkpt lat="43.46241" lon="3.81027">
        <ele>46.93</ele>
        <time>2018-06-04T15:22:44.999Z</time>
      </trkpt>
      <trkpt lat="43.46249" lon="3.81034">
        <ele>46.93</ele>
        <time>2018-06-04T15:22:53.999Z</time>
      </trkpt>
      <trkpt lat="43.46257" lon="3.81043">
        <ele>46.92</ele>
        <time>2018-06-04T15:23:03.999Z</time>
      </trkpt>
      <trkpt lat="43.46265" lon="3.81049">
        <ele>46.91</ele>
        <time>2018-06-04T15:23:11.999Z</time>
      </trkpt>
      <trkpt lat="43.46274" lon="3.81055">
        <ele>46.9</ele>
        <time>2018-06-04T15:23:18.999Z</time>
      </trkpt>
      <trkpt lat="43.46283" lon="3.8106">
        <ele>46.89</ele>
        <time>2018-06-04T15:23:29.999Z</time>
      </trkpt>
      <trkpt lat="43.46292" lon="3.81065">
        <ele>46.88</ele>
        <time>2018-06-04T15:23:40.999Z</time>
      </trkpt>
      <trkpt lat="43.46298" lon="3.81074">
        <ele>46.87</ele>
        <time>2018-06-04T15:23:49.999Z</time>
      </trkpt>
      <trkpt lat="43.46306" lon="3.81081">
        <ele>46.86</ele>
        <time>2018-06-04T15:24:27.999Z</time>
      </trkpt>
      <trkpt lat="43.46316" lon="3.81086">
        <ele>46.86</ele>
        <time>2018-06-04T15:24:36.999Z</time>
      </trkpt>
      <trkpt lat="43.46324" lon="3.81091">
        <ele>46.87</ele>
        <time>2018-06-04T15:24:45.999Z</time>
      </trkpt>
      <trkpt lat="43.46333" lon="3.81097">
        <ele>46.87</ele>
        <time>2018-06-04T15:24:54.999Z</time>
      </trkpt>
      <trkpt lat="43.46341" lon="3.81103">
        <ele>46.87</ele>
        <time>2018-06-04T15:25:03.999Z</time>
      </trkpt>
      <trkpt lat="43.4635" lon="3.81108">
        <ele>46.87</ele>
        <time>2018-06-04T15:25:11.999Z</time>
      </trkpt>
      <trkpt lat="43.46358" lon="3.81112">
        <ele>46.87</ele>
        <time>2018-06-04T15:25:19.999Z</time>
      </trkpt>
      <trkpt lat="43.46367" lon="3.81119">
        <ele>46.86</ele>
        <time>2018-06-04T15:25:27.999Z</time>
      </trkpt>
      <trkpt lat="43.46375" lon="3.81126">
        <ele>46.86</ele>
        <time>2018-06-04T15:25:33.999Z</time>
      </trkpt>
      <trkpt lat="43.46383" lon="3.81132">
        <ele>46.86</ele>
        <time>2018-06-04T15:25:42.999Z</time>
      </trkpt>
      <trkpt lat="43.4639" lon="3.8114">
        <ele>46.85</ele>
        <time>2018-06-04T15:25:51.999Z</time>
      </trkpt>
      <trkpt lat="43.46399" lon="3.81149">
        <ele>46.85</ele>
        <time>2018-06-04T15:26:10.999Z</time>
      </trkpt>
      <trkpt lat="43.46407" lon="3.81154">
        <ele>46.84</ele>
        <time>2018-06-04T15:26:16.999Z</time>
      </trkpt>
      <trkpt lat="43.46414" lon="3.81162">
        <ele>46.81</ele>
        <time>2018-06-04T15:26:25.999Z</time>
      </trkpt>
      <trkpt lat="43.46421" lon="3.81169">
        <ele>46.78</ele>
        <time>2018-06-04T15:26:32.999Z</time>
      </trkpt>
      <trkpt lat="43.46429" lon="3.81175">
        <ele>46.75</ele>
        <time>2018-06-04T15:26:40.999Z</time>
      </trkpt>
      <trkpt lat="43.46438" lon="3.81182">
        <ele>46.72</ele>
        <time>2018-06-04T15:26:50.999Z</time>
      </trkpt>
      <trkpt lat="43.46446" lon="3.81189">
        <ele>46.69</ele>
        <time>2018-06-04T15:26:59.999Z</time>
      </trkpt>
      <trkpt lat="43.46453" lon="3.81197">
        <ele>46.67</ele>
        <time>2018-06-04T15:27:07.999Z</time>
      </trkpt>
      <trkpt lat="43.46462" lon="3.81204">
        <ele>46.65</ele>
        <time>2018-06-04T15:27:14.999Z</time>
      </trkpt>
      <trkpt lat="43.46469" lon="3.81212">
        <ele>46.63</ele>
        <time>2018-06-04T15:27:22.999Z</time>
      </trkpt>
      <trkpt lat="43.46477" lon="3.81219">
        <ele>46.61</ele>
        <time>2018-06-04T15:27:36.999Z</time>
      </trkpt>
      <trkpt lat="43.46485" lon="3.81226">
        <ele>46.6</ele>
        <time>2018-06-04T15:27:44.999Z</time>
      </trkpt>
      <trkpt lat="43.46491" lon="3.81237">
        <ele>46.59</ele>
        <time>2018-06-04T15:27:55.999Z</time>
      </trkpt>
      <trkpt lat="43.46498" lon="3.81245">
        <ele>46.58</ele>
        <time>2018-06-04T15:28:03.999Z</time>
      </trkpt>
      <trkpt lat="43.46505" lon="3.81254">
        <ele>46.57</ele>
        <time>2018-06-04T15:28:10.999Z</time>
      </trkpt>
      <trkpt lat="43.46512" lon="3.81265">
        <ele>46.56</ele>
        <time>2018-06-04T15:28:18.999Z</time>
      </trkpt>
      <trkpt lat="43.4652" lon="3.81274">
        <ele>46.55</ele>
        <time>2018-06-04T15:28:26.999Z</time>
      </trkpt>
      <trkpt lat="43.46527" lon="3.81282">
        <ele>46.54</ele>
        <time>2018-06-04T15:28:33.999Z</time>
      </trkpt>
      <trkpt lat="43.46534" lon="3.81292">
        <ele>46.53</ele>
        <time>2018-06-04T15:28:41.999Z</time>
      </trkpt>
      <trkpt lat="43.4654" lon="3.81303">
        <ele>46.53</ele>
        <time>2018-06-04T15:28:50.999Z</time>
      </trkpt>
      <trkpt lat="43.46545" lon="3.81313">
        <ele>46.53</ele>
        <time>2018-06-04T15:28:58.999Z</time>
      </trkpt>
      <trkpt lat="43.46552" lon="3.81323">
        <ele>46.53</ele>
        <time>2018-06-04T15:29:05.999Z</time>
      </trkpt>
      <trkpt lat="43.46558" lon="3.81333">
        <ele>46.53</ele>
        <time>2018-06-04T15:29:15.999Z</time>
      </trkpt>
      <trkpt lat="43.46566" lon="3.81341">
        <ele>46.54</ele>
        <time>2018-06-04T15:29:24.999Z</time>
      </trkpt>
      <trkpt lat="43.46574" lon="3.81349">
        <ele>46.54</ele>
        <time>2018-06-04T15:29:32.999Z</time>
      </trkpt>
      <trkpt lat="43.46582" lon="3.81358">
        <ele>46.54</ele>
        <time>2018-06-04T15:29:41.999Z</time>
      </trkpt>
      <trkpt lat="43.46588" lon="3.8137">
        <ele>46.54</ele>
        <time>2018-06-04T15:29:51.999Z</time>
      </trkpt>
      <trkpt lat="43.46594" lon="3.8138">
        <ele>46.54</ele>
        <time>2018-06-04T15:30:00.999Z</time>
      </trkpt>
      <trkpt lat="43.466" lon="3.81389">
        <ele>46.55</ele>
        <time>2018-06-04T15:30:10.999Z</time>
      </trkpt>
      <trkpt lat="43.46606" lon="3.81399">
        <ele>46.56</ele>
        <time>2018-06-04T15:30:17.999Z</time>
      </trkpt>
      <trkpt lat="43.46611" lon="3.8141">
        <ele>46.57</ele>
        <time>2018-06-04T15:30:25.999Z</time>
      </trkpt>
      <trkpt lat="43.46616" lon="3.81419">
        <ele>46.58</ele>
        <time>2018-06-04T15:30:33.999Z</time>
      </trkpt>
      <trkpt lat="43.46624" lon="3.81426">
        <ele>46.58</ele>
        <time>2018-06-04T15:30:41.999Z</time>
      </trkpt>
      <trkpt lat="43.46633" lon="3.81431">
        <ele>46.59</ele>
        <time>2018-06-04T15:30:54.999Z</time>
      </trkpt>
      <trkpt lat="43.46641" lon="3.81438">
        <ele>46.63</ele>
        <time>2018-06-04T15:31:10.999Z</time>
      </trkpt>
      <trkpt lat="43.4665" lon="3.81436">
        <ele>46.71</ele>
        <time>2018-06-04T15:31:32.999Z</time>
      </trkpt>
      <trkpt lat="43.4666" lon="3.81437">
        <ele>46.76</ele>
        <time>2018-06-04T15:31:42.999Z</time>
      </trkpt>
    </trkseg>
  </trk>
</gpx>